<?xml version="1.0" encoding="UTF-8" standalone="no" ?>
<gpx xmlns="http://www.topografix.com/GPX/1/1" xmlns:xsi="http://www.w3.org/2001/XMLSchema-instance" xsi:schemaLocation="http://www.topografix.com/GPX/1/1 http://www.topografix.com/GPX/1/1/gpx.xsd" version="1.1" creator="VisuGPX - https://www.visugpx.com">
  <metadata>
    <name>45 km VTT Muguet v3</name>
    <desc><![CDATA[Normalement, le bon sens de rotation !]]></desc>
  </metadata>
  <trk>
    <name><![CDATA[20180503104826-CKWph]]></name>
    <trkseg>
      <trkpt lat="45.34156" lon="5.38534">
        <ele>400</ele>
        <time>2018-05-01T13:57:13Z</time>
      </trkpt>
      <trkpt lat="45.34159" lon="5.38616">
        <ele>401</ele>
        <time>2018-05-01T13:58:13Z</time>
      </trkpt>
      <trkpt lat="45.34125" lon="5.3862">
        <ele>401</ele>
        <time>2018-05-01T13:59:13Z</time>
      </trkpt>
      <trkpt lat="45.34043" lon="5.38622">
        <ele>401</ele>
        <time>2018-05-01T14:00:13Z</time>
      </trkpt>
      <trkpt lat="45.34018" lon="5.38425">
        <ele>400</ele>
        <time>2018-05-01T14:01:13Z</time>
      </trkpt>
      <trkpt lat="45.34022" lon="5.38395">
        <ele>399</ele>
        <time>2018-05-01T14:02:13Z</time>
      </trkpt>
      <trkpt lat="45.34045" lon="5.38367">
        <ele>399</ele>
        <time>2018-05-01T14:03:13Z</time>
      </trkpt>
      <trkpt lat="45.34081" lon="5.38328">
        <ele>399</ele>
        <time>2018-05-01T14:04:13Z</time>
      </trkpt>
      <trkpt lat="45.34097" lon="5.38275">
        <ele>399</ele>
        <time>2018-05-01T14:05:13Z</time>
      </trkpt>
      <trkpt lat="45.34106" lon="5.38195">
        <ele>397</ele>
        <time>2018-05-01T14:06:13Z</time>
      </trkpt>
      <trkpt lat="45.34108" lon="5.38144">
        <ele>397</ele>
        <time>2018-05-01T14:07:13Z</time>
      </trkpt>
      <trkpt lat="45.34104" lon="5.38077">
        <ele>396</ele>
        <time>2018-05-01T14:08:13Z</time>
      </trkpt>
      <trkpt lat="45.34099" lon="5.3803">
        <ele>397</ele>
        <time>2018-05-01T14:09:13Z</time>
      </trkpt>
      <trkpt lat="45.34081" lon="5.37997">
        <ele>396</ele>
        <time>2018-05-01T14:10:13Z</time>
      </trkpt>
      <trkpt lat="45.34058" lon="5.37984">
        <ele>395</ele>
        <time>2018-05-01T14:11:13Z</time>
      </trkpt>
      <trkpt lat="45.3406" lon="5.37928">
        <ele>395</ele>
        <time>2018-05-01T14:12:13Z</time>
      </trkpt>
      <trkpt lat="45.34086" lon="5.37744">
        <ele>394</ele>
        <time>2018-05-01T14:13:13Z</time>
      </trkpt>
      <trkpt lat="45.3399" lon="5.37709">
        <ele>393</ele>
        <time>2018-05-01T14:14:13Z</time>
      </trkpt>
      <trkpt lat="45.33951" lon="5.37702">
        <ele>394</ele>
        <time>2018-05-01T14:15:13Z</time>
      </trkpt>
      <trkpt lat="45.33901" lon="5.37717">
        <ele>396</ele>
        <time>2018-05-01T14:16:13Z</time>
      </trkpt>
      <trkpt lat="45.33868" lon="5.37739">
        <ele>396</ele>
        <time>2018-05-01T14:17:13Z</time>
      </trkpt>
      <trkpt lat="45.33855" lon="5.37704">
        <ele>396</ele>
        <time>2018-05-01T14:18:13Z</time>
      </trkpt>
      <trkpt lat="45.33852" lon="5.37677">
        <ele>396</ele>
        <time>2018-05-01T14:19:13Z</time>
      </trkpt>
      <trkpt lat="45.33856" lon="5.37632">
        <ele>397</ele>
        <time>2018-05-01T14:20:13Z</time>
      </trkpt>
      <trkpt lat="45.33869" lon="5.37553">
        <ele>397</ele>
        <time>2018-05-01T14:21:13Z</time>
      </trkpt>
      <trkpt lat="45.33822" lon="5.37499">
        <ele>407</ele>
        <time>2018-05-01T14:22:13Z</time>
      </trkpt>
      <trkpt lat="45.33816" lon="5.37399">
        <ele>412</ele>
        <time>2018-05-01T14:23:13Z</time>
      </trkpt>
      <trkpt lat="45.33819" lon="5.37307">
        <ele>413</ele>
        <time>2018-05-01T14:24:13Z</time>
      </trkpt>
      <trkpt lat="45.33822" lon="5.37251">
        <ele>410</ele>
        <time>2018-05-01T14:25:13Z</time>
      </trkpt>
      <trkpt lat="45.3383" lon="5.37134">
        <ele>413</ele>
        <time>2018-05-01T14:26:13Z</time>
      </trkpt>
      <trkpt lat="45.33849" lon="5.36994">
        <ele>407</ele>
        <time>2018-05-01T14:27:13Z</time>
      </trkpt>
      <trkpt lat="45.3384" lon="5.36868">
        <ele>403</ele>
        <time>2018-05-01T14:28:13Z</time>
      </trkpt>
      <trkpt lat="45.3382" lon="5.36803">
        <ele>415</ele>
        <time>2018-05-01T14:29:13Z</time>
      </trkpt>
      <trkpt lat="45.33811" lon="5.36687">
        <ele>409</ele>
        <time>2018-05-01T14:30:13Z</time>
      </trkpt>
      <trkpt lat="45.33804" lon="5.36614">
        <ele>408</ele>
        <time>2018-05-01T14:31:13Z</time>
      </trkpt>
      <trkpt lat="45.33819" lon="5.36537">
        <ele>403</ele>
        <time>2018-05-01T14:32:13Z</time>
      </trkpt>
      <trkpt lat="45.33796" lon="5.36425">
        <ele>404</ele>
        <time>2018-05-01T14:33:13Z</time>
      </trkpt>
      <trkpt lat="45.33801" lon="5.36318">
        <ele>401</ele>
        <time>2018-05-01T14:34:13Z</time>
      </trkpt>
      <trkpt lat="45.33819" lon="5.36213">
        <ele>400</ele>
        <time>2018-05-01T14:35:13Z</time>
      </trkpt>
      <trkpt lat="45.33816" lon="5.36129">
        <ele>400</ele>
        <time>2018-05-01T14:36:13Z</time>
      </trkpt>
      <trkpt lat="45.33799" lon="5.36039">
        <ele>397</ele>
        <time>2018-05-01T14:37:13Z</time>
      </trkpt>
      <trkpt lat="45.3377" lon="5.36028">
        <ele>399</ele>
        <time>2018-05-01T14:38:13Z</time>
      </trkpt>
      <trkpt lat="45.33745" lon="5.36066">
        <ele>409</ele>
        <time>2018-05-01T14:39:13Z</time>
      </trkpt>
      <trkpt lat="45.33742" lon="5.36141">
        <ele>417</ele>
        <time>2018-05-01T14:40:13Z</time>
      </trkpt>
      <trkpt lat="45.33737" lon="5.36202">
        <ele>421</ele>
        <time>2018-05-01T14:41:13Z</time>
      </trkpt>
      <trkpt lat="45.33721" lon="5.3622">
        <ele>423</ele>
        <time>2018-05-01T14:42:13Z</time>
      </trkpt>
      <trkpt lat="45.33686" lon="5.36161">
        <ele>426</ele>
        <time>2018-05-01T14:43:13Z</time>
      </trkpt>
      <trkpt lat="45.33668" lon="5.36155">
        <ele>429</ele>
        <time>2018-05-01T14:44:13Z</time>
      </trkpt>
      <trkpt lat="45.33589" lon="5.36203">
        <ele>439</ele>
        <time>2018-05-01T14:45:13Z</time>
      </trkpt>
      <trkpt lat="45.33508" lon="5.36218">
        <ele>448</ele>
        <time>2018-05-01T14:46:13Z</time>
      </trkpt>
      <trkpt lat="45.33408" lon="5.36213">
        <ele>459</ele>
        <time>2018-05-01T14:47:13Z</time>
      </trkpt>
      <trkpt lat="45.33355" lon="5.36202">
        <ele>461</ele>
        <time>2018-05-01T14:48:13Z</time>
      </trkpt>
      <trkpt lat="45.33251" lon="5.36188">
        <ele>470</ele>
        <time>2018-05-01T14:49:13Z</time>
      </trkpt>
      <trkpt lat="45.33205" lon="5.36218">
        <ele>474</ele>
        <time>2018-05-01T14:50:13Z</time>
      </trkpt>
      <trkpt lat="45.3318" lon="5.36421">
        <ele>478</ele>
        <time>2018-05-01T14:51:13Z</time>
      </trkpt>
      <trkpt lat="45.33142" lon="5.36499">
        <ele>483</ele>
        <time>2018-05-01T14:52:13Z</time>
      </trkpt>
      <trkpt lat="45.3309" lon="5.36494">
        <ele>486</ele>
        <time>2018-05-01T14:53:13Z</time>
      </trkpt>
      <trkpt lat="45.32975" lon="5.36368">
        <ele>490</ele>
        <time>2018-05-01T14:54:13Z</time>
      </trkpt>
      <trkpt lat="45.32941" lon="5.36348">
        <ele>490</ele>
        <time>2018-05-01T14:55:13Z</time>
      </trkpt>
      <trkpt lat="45.32906" lon="5.36298">
        <ele>491</ele>
        <time>2018-05-01T14:56:13Z</time>
      </trkpt>
      <trkpt lat="45.32877" lon="5.36191">
        <ele>490</ele>
        <time>2018-05-01T14:57:13Z</time>
      </trkpt>
      <trkpt lat="45.32875" lon="5.36113">
        <ele>488</ele>
        <time>2018-05-01T14:58:13Z</time>
      </trkpt>
      <trkpt lat="45.32853" lon="5.36127">
        <ele>488</ele>
        <time>2018-05-01T14:59:13Z</time>
      </trkpt>
      <trkpt lat="45.32824" lon="5.36112">
        <ele>489</ele>
        <time>2018-05-01T15:00:13Z</time>
      </trkpt>
      <trkpt lat="45.32785" lon="5.36003">
        <ele>486</ele>
        <time>2018-05-01T15:01:13Z</time>
      </trkpt>
      <trkpt lat="45.32757" lon="5.36129">
        <ele>493</ele>
        <time>2018-05-01T15:02:13Z</time>
      </trkpt>
      <trkpt lat="45.32779" lon="5.36202">
        <ele>497</ele>
        <time>2018-05-01T15:03:13Z</time>
      </trkpt>
      <trkpt lat="45.32733" lon="5.36316">
        <ele>505</ele>
        <time>2018-05-01T15:04:13Z</time>
      </trkpt>
      <trkpt lat="45.32723" lon="5.36467">
        <ele>513</ele>
        <time>2018-05-01T15:05:13Z</time>
      </trkpt>
      <trkpt lat="45.3271" lon="5.36591">
        <ele>515</ele>
        <time>2018-05-01T15:06:13Z</time>
      </trkpt>
      <trkpt lat="45.32713" lon="5.36681">
        <ele>515</ele>
        <time>2018-05-01T15:07:13Z</time>
      </trkpt>
      <trkpt lat="45.32692" lon="5.36706">
        <ele>517</ele>
        <time>2018-05-01T15:08:13Z</time>
      </trkpt>
      <trkpt lat="45.32647" lon="5.367">
        <ele>522</ele>
        <time>2018-05-01T15:09:13Z</time>
      </trkpt>
      <trkpt lat="45.326" lon="5.36676">
        <ele>522</ele>
        <time>2018-05-01T15:10:13Z</time>
      </trkpt>
      <trkpt lat="45.32573" lon="5.36749">
        <ele>519</ele>
        <time>2018-05-01T15:11:13Z</time>
      </trkpt>
      <trkpt lat="45.32563" lon="5.36797">
        <ele>516</ele>
        <time>2018-05-01T15:12:13Z</time>
      </trkpt>
      <trkpt lat="45.32536" lon="5.36877">
        <ele>515</ele>
        <time>2018-05-01T15:13:13Z</time>
      </trkpt>
      <trkpt lat="45.32502" lon="5.36928">
        <ele>515</ele>
        <time>2018-05-01T15:14:13Z</time>
      </trkpt>
      <trkpt lat="45.3245" lon="5.37148">
        <ele>517</ele>
        <time>2018-05-01T15:15:13Z</time>
      </trkpt>
      <trkpt lat="45.32438" lon="5.37255">
        <ele>517</ele>
        <time>2018-05-01T15:16:13Z</time>
      </trkpt>
      <trkpt lat="45.32433" lon="5.37334">
        <ele>517</ele>
        <time>2018-05-01T15:17:13Z</time>
      </trkpt>
      <trkpt lat="45.32416" lon="5.37436">
        <ele>504</ele>
        <time>2018-05-01T15:18:13Z</time>
      </trkpt>
      <trkpt lat="45.32367" lon="5.3745">
        <ele>498</ele>
        <time>2018-05-01T15:19:13Z</time>
      </trkpt>
      <trkpt lat="45.32296" lon="5.37432">
        <ele>484</ele>
        <time>2018-05-01T15:20:13Z</time>
      </trkpt>
      <trkpt lat="45.32278" lon="5.37357">
        <ele>482</ele>
        <time>2018-05-01T15:21:13Z</time>
      </trkpt>
      <trkpt lat="45.32291" lon="5.37231">
        <ele>481</ele>
        <time>2018-05-01T15:22:13Z</time>
      </trkpt>
      <trkpt lat="45.32272" lon="5.37214">
        <ele>479</ele>
        <time>2018-05-01T15:23:13Z</time>
      </trkpt>
      <trkpt lat="45.32239" lon="5.37215">
        <ele>477</ele>
        <time>2018-05-01T15:24:13Z</time>
      </trkpt>
      <trkpt lat="45.32204" lon="5.37364">
        <ele>482</ele>
        <time>2018-05-01T15:25:13Z</time>
      </trkpt>
      <trkpt lat="45.322" lon="5.37525">
        <ele>488</ele>
        <time>2018-05-01T15:26:13Z</time>
      </trkpt>
      <trkpt lat="45.32205" lon="5.37634">
        <ele>490</ele>
        <time>2018-05-01T15:27:13Z</time>
      </trkpt>
      <trkpt lat="45.32201" lon="5.37766">
        <ele>490</ele>
        <time>2018-05-01T15:28:13Z</time>
      </trkpt>
      <trkpt lat="45.32175" lon="5.37882">
        <ele>490</ele>
        <time>2018-05-01T15:29:13Z</time>
      </trkpt>
      <trkpt lat="45.32177" lon="5.37998">
        <ele>491</ele>
        <time>2018-05-01T15:30:13Z</time>
      </trkpt>
      <trkpt lat="45.32149" lon="5.38046">
        <ele>499</ele>
        <time>2018-05-01T15:31:13Z</time>
      </trkpt>
      <trkpt lat="45.32059" lon="5.38042">
        <ele>510</ele>
        <time>2018-05-01T15:32:13Z</time>
      </trkpt>
      <trkpt lat="45.31999" lon="5.38002">
        <ele>511</ele>
        <time>2018-05-01T15:33:13Z</time>
      </trkpt>
      <trkpt lat="45.31949" lon="5.37945">
        <ele>519</ele>
        <time>2018-05-01T15:34:13Z</time>
      </trkpt>
      <trkpt lat="45.31909" lon="5.37884">
        <ele>524</ele>
        <time>2018-05-01T15:35:13Z</time>
      </trkpt>
      <trkpt lat="45.31857" lon="5.37857">
        <ele>526</ele>
        <time>2018-05-01T15:36:13Z</time>
      </trkpt>
      <trkpt lat="45.31808" lon="5.37884">
        <ele>529</ele>
        <time>2018-05-01T15:37:13Z</time>
      </trkpt>
      <trkpt lat="45.31751" lon="5.37989">
        <ele>533</ele>
        <time>2018-05-01T15:38:13Z</time>
      </trkpt>
      <trkpt lat="45.31695" lon="5.38091">
        <ele>541</ele>
        <time>2018-05-01T15:39:13Z</time>
      </trkpt>
      <trkpt lat="45.31584" lon="5.38152">
        <ele>549</ele>
        <time>2018-05-01T15:40:13Z</time>
      </trkpt>
      <trkpt lat="45.31545" lon="5.38168">
        <ele>555</ele>
        <time>2018-05-01T15:41:13Z</time>
      </trkpt>
      <trkpt lat="45.31496" lon="5.38162">
        <ele>557</ele>
        <time>2018-05-01T15:42:13Z</time>
      </trkpt>
      <trkpt lat="45.31499" lon="5.38242">
        <ele>560</ele>
        <time>2018-05-01T15:43:13Z</time>
      </trkpt>
      <trkpt lat="45.31415" lon="5.38378">
        <ele>575</ele>
        <time>2018-05-01T15:44:13Z</time>
      </trkpt>
      <trkpt lat="45.31358" lon="5.38418">
        <ele>582</ele>
        <time>2018-05-01T15:45:13Z</time>
      </trkpt>
      <trkpt lat="45.31274" lon="5.38459">
        <ele>584</ele>
        <time>2018-05-01T15:46:13Z</time>
      </trkpt>
      <trkpt lat="45.3124" lon="5.38493">
        <ele>581</ele>
        <time>2018-05-01T15:47:13Z</time>
      </trkpt>
      <trkpt lat="45.31225" lon="5.38572">
        <ele>583</ele>
        <time>2018-05-01T15:48:13Z</time>
      </trkpt>
      <trkpt lat="45.31243" lon="5.38636">
        <ele>582</ele>
        <time>2018-05-01T15:49:13Z</time>
      </trkpt>
      <trkpt lat="45.31276" lon="5.38708">
        <ele>587</ele>
        <time>2018-05-01T15:50:13Z</time>
      </trkpt>
      <trkpt lat="45.31307" lon="5.38806">
        <ele>587</ele>
        <time>2018-05-01T15:51:13Z</time>
      </trkpt>
      <trkpt lat="45.31343" lon="5.38907">
        <ele>588</ele>
        <time>2018-05-01T15:52:13Z</time>
      </trkpt>
      <trkpt lat="45.31367" lon="5.38994">
        <ele>590</ele>
        <time>2018-05-01T15:53:13Z</time>
      </trkpt>
      <trkpt lat="45.31319" lon="5.39033">
        <ele>589</ele>
        <time>2018-05-01T15:54:13Z</time>
      </trkpt>
      <trkpt lat="45.3127" lon="5.39094">
        <ele>595</ele>
        <time>2018-05-01T15:55:13Z</time>
      </trkpt>
      <trkpt lat="45.31259" lon="5.39149">
        <ele>596</ele>
        <time>2018-05-01T15:56:13Z</time>
      </trkpt>
      <trkpt lat="45.3119" lon="5.3904">
        <ele>597</ele>
        <time>2018-05-01T15:57:13Z</time>
      </trkpt>
      <trkpt lat="45.31144" lon="5.391">
        <ele>599</ele>
        <time>2018-05-01T15:58:13Z</time>
      </trkpt>
      <trkpt lat="45.31104" lon="5.39137">
        <ele>600</ele>
        <time>2018-05-01T15:59:13Z</time>
      </trkpt>
      <trkpt lat="45.31063" lon="5.3913">
        <ele>603</ele>
        <time>2018-05-01T16:00:13Z</time>
      </trkpt>
      <trkpt lat="45.31027" lon="5.39097">
        <ele>602</ele>
        <time>2018-05-01T16:01:13Z</time>
      </trkpt>
      <trkpt lat="45.30995" lon="5.39046">
        <ele>597</ele>
        <time>2018-05-01T16:02:13Z</time>
      </trkpt>
      <trkpt lat="45.30962" lon="5.38954">
        <ele>592</ele>
        <time>2018-05-01T16:03:13Z</time>
      </trkpt>
      <trkpt lat="45.30936" lon="5.38899">
        <ele>586</ele>
        <time>2018-05-01T16:04:13Z</time>
      </trkpt>
      <trkpt lat="45.30883" lon="5.38846">
        <ele>573</ele>
        <time>2018-05-01T16:05:13Z</time>
      </trkpt>
      <trkpt lat="45.30834" lon="5.38861">
        <ele>569</ele>
        <time>2018-05-01T16:06:13Z</time>
      </trkpt>
      <trkpt lat="45.30777" lon="5.38909">
        <ele>557</ele>
        <time>2018-05-01T16:07:13Z</time>
      </trkpt>
      <trkpt lat="45.30738" lon="5.38926">
        <ele>550</ele>
        <time>2018-05-01T16:08:13Z</time>
      </trkpt>
      <trkpt lat="45.30688" lon="5.38948">
        <ele>543</ele>
        <time>2018-05-01T16:09:13Z</time>
      </trkpt>
      <trkpt lat="45.30632" lon="5.38995">
        <ele>530</ele>
        <time>2018-05-01T16:10:13Z</time>
      </trkpt>
      <trkpt lat="45.30576" lon="5.3901">
        <ele>523</ele>
        <time>2018-05-01T16:11:13Z</time>
      </trkpt>
      <trkpt lat="45.30501" lon="5.39032">
        <ele>518</ele>
        <time>2018-05-01T16:12:13Z</time>
      </trkpt>
      <trkpt lat="45.30431" lon="5.3906">
        <ele>513</ele>
        <time>2018-05-01T16:13:13Z</time>
      </trkpt>
      <trkpt lat="45.30446" lon="5.39035">
        <ele>512</ele>
        <time>2018-05-01T16:14:13Z</time>
      </trkpt>
      <trkpt lat="45.30443" lon="5.38926">
        <ele>510</ele>
        <time>2018-05-01T16:15:13Z</time>
      </trkpt>
      <trkpt lat="45.30475" lon="5.3883">
        <ele>513</ele>
        <time>2018-05-01T16:16:13Z</time>
      </trkpt>
      <trkpt lat="45.30383" lon="5.38745">
        <ele>533</ele>
        <time>2018-05-01T16:17:13Z</time>
      </trkpt>
      <trkpt lat="45.30248" lon="5.38623">
        <ele>545</ele>
        <time>2018-05-01T16:18:13Z</time>
      </trkpt>
      <trkpt lat="45.30178" lon="5.38562">
        <ele>556</ele>
        <time>2018-05-01T16:19:13Z</time>
      </trkpt>
      <trkpt lat="45.3011" lon="5.38512">
        <ele>554</ele>
        <time>2018-05-01T16:20:13Z</time>
      </trkpt>
      <trkpt lat="45.30009" lon="5.38415">
        <ele>575</ele>
        <time>2018-05-01T16:21:13Z</time>
      </trkpt>
      <trkpt lat="45.30151" lon="5.38461">
        <ele>577</ele>
        <time>2018-05-01T16:22:13Z</time>
      </trkpt>
      <trkpt lat="45.30191" lon="5.38458">
        <ele>588</ele>
        <time>2018-05-01T16:23:13Z</time>
      </trkpt>
      <trkpt lat="45.30302" lon="5.38506">
        <ele>582</ele>
        <time>2018-05-01T16:24:13Z</time>
      </trkpt>
      <trkpt lat="45.3033" lon="5.38477">
        <ele>590</ele>
        <time>2018-05-01T16:25:13Z</time>
      </trkpt>
      <trkpt lat="45.30307" lon="5.38431">
        <ele>590</ele>
        <time>2018-05-01T16:26:13Z</time>
      </trkpt>
      <trkpt lat="45.3023" lon="5.38363">
        <ele>604</ele>
        <time>2018-05-01T16:27:13Z</time>
      </trkpt>
      <trkpt lat="45.30202" lon="5.3829">
        <ele>612</ele>
        <time>2018-05-01T16:28:13Z</time>
      </trkpt>
      <trkpt lat="45.30191" lon="5.38228">
        <ele>615</ele>
        <time>2018-05-01T16:29:13Z</time>
      </trkpt>
      <trkpt lat="45.30191" lon="5.38167">
        <ele>614</ele>
        <time>2018-05-01T16:30:13Z</time>
      </trkpt>
      <trkpt lat="45.3018" lon="5.3816">
        <ele>616</ele>
        <time>2018-05-01T16:31:13Z</time>
      </trkpt>
      <trkpt lat="45.30147" lon="5.38221">
        <ele>629</ele>
        <time>2018-05-01T16:32:13Z</time>
      </trkpt>
      <trkpt lat="45.30079" lon="5.38219">
        <ele>635</ele>
        <time>2018-05-01T16:33:13Z</time>
      </trkpt>
      <trkpt lat="45.30048" lon="5.38167">
        <ele>637</ele>
        <time>2018-05-01T16:34:13Z</time>
      </trkpt>
      <trkpt lat="45.29965" lon="5.38132">
        <ele>649</ele>
        <time>2018-05-01T16:35:13Z</time>
      </trkpt>
      <trkpt lat="45.29911" lon="5.38102">
        <ele>651</ele>
        <time>2018-05-01T16:36:13Z</time>
      </trkpt>
      <trkpt lat="45.29893" lon="5.38079">
        <ele>662</ele>
        <time>2018-05-01T16:37:13Z</time>
      </trkpt>
      <trkpt lat="45.29853" lon="5.38049">
        <ele>665</ele>
        <time>2018-05-01T16:38:13Z</time>
      </trkpt>
      <trkpt lat="45.29747" lon="5.38018">
        <ele>660</ele>
        <time>2018-05-01T16:39:13Z</time>
      </trkpt>
      <trkpt lat="45.29704" lon="5.37976">
        <ele>672</ele>
        <time>2018-05-01T16:40:13Z</time>
      </trkpt>
      <trkpt lat="45.29673" lon="5.37925">
        <ele>676</ele>
        <time>2018-05-01T16:41:13Z</time>
      </trkpt>
      <trkpt lat="45.29626" lon="5.37878">
        <ele>681</ele>
        <time>2018-05-01T16:42:13Z</time>
      </trkpt>
      <trkpt lat="45.29466" lon="5.37783">
        <ele>679</ele>
        <time>2018-05-01T16:43:13Z</time>
      </trkpt>
      <trkpt lat="45.29391" lon="5.37757">
        <ele>676</ele>
        <time>2018-05-01T16:44:13Z</time>
      </trkpt>
      <trkpt lat="45.29328" lon="5.37733">
        <ele>681</ele>
        <time>2018-05-01T16:45:13Z</time>
      </trkpt>
      <trkpt lat="45.29264" lon="5.37676">
        <ele>691</ele>
        <time>2018-05-01T16:46:13Z</time>
      </trkpt>
      <trkpt lat="45.29211" lon="5.37657">
        <ele>703</ele>
        <time>2018-05-01T16:47:13Z</time>
      </trkpt>
      <trkpt lat="45.29162" lon="5.37652">
        <ele>700</ele>
        <time>2018-05-01T16:48:13Z</time>
      </trkpt>
      <trkpt lat="45.29128" lon="5.37652">
        <ele>707</ele>
        <time>2018-05-01T16:49:13Z</time>
      </trkpt>
      <trkpt lat="45.29086" lon="5.37682">
        <ele>696</ele>
        <time>2018-05-01T16:50:13Z</time>
      </trkpt>
      <trkpt lat="45.29072" lon="5.37738">
        <ele>694</ele>
        <time>2018-05-01T16:51:13Z</time>
      </trkpt>
      <trkpt lat="45.29109" lon="5.37856">
        <ele>677</ele>
        <time>2018-05-01T16:52:13Z</time>
      </trkpt>
      <trkpt lat="45.29099" lon="5.37929">
        <ele>673</ele>
        <time>2018-05-01T16:53:13Z</time>
      </trkpt>
      <trkpt lat="45.29069" lon="5.38037">
        <ele>678</ele>
        <time>2018-05-01T16:54:13Z</time>
      </trkpt>
      <trkpt lat="45.29095" lon="5.38064">
        <ele>667</ele>
        <time>2018-05-01T16:55:13Z</time>
      </trkpt>
      <trkpt lat="45.29204" lon="5.38142">
        <ele>664</ele>
        <time>2018-05-01T16:56:13Z</time>
      </trkpt>
      <trkpt lat="45.29268" lon="5.38199">
        <ele>664</ele>
        <time>2018-05-01T16:57:13Z</time>
      </trkpt>
      <trkpt lat="45.29328" lon="5.38271">
        <ele>672</ele>
        <time>2018-05-01T16:58:13Z</time>
      </trkpt>
      <trkpt lat="45.29385" lon="5.38386">
        <ele>668</ele>
        <time>2018-05-01T16:59:13Z</time>
      </trkpt>
      <trkpt lat="45.29464" lon="5.38398">
        <ele>646</ele>
        <time>2018-05-01T17:00:13Z</time>
      </trkpt>
      <trkpt lat="45.29528" lon="5.38439">
        <ele>646</ele>
        <time>2018-05-01T17:01:13Z</time>
      </trkpt>
      <trkpt lat="45.29576" lon="5.3847">
        <ele>646</ele>
        <time>2018-05-01T17:02:13Z</time>
      </trkpt>
      <trkpt lat="45.29651" lon="5.38516">
        <ele>641</ele>
        <time>2018-05-01T17:03:13Z</time>
      </trkpt>
      <trkpt lat="45.29708" lon="5.3857">
        <ele>631</ele>
        <time>2018-05-01T17:04:13Z</time>
      </trkpt>
      <trkpt lat="45.29777" lon="5.3865">
        <ele>629</ele>
        <time>2018-05-01T17:05:13Z</time>
      </trkpt>
      <trkpt lat="45.29787" lon="5.38672">
        <ele>628</ele>
        <time>2018-05-01T17:06:13Z</time>
      </trkpt>
      <trkpt lat="45.2975" lon="5.38752">
        <ele>628</ele>
        <time>2018-05-01T17:07:13Z</time>
      </trkpt>
      <trkpt lat="45.29721" lon="5.38819">
        <ele>628</ele>
        <time>2018-05-01T17:08:13Z</time>
      </trkpt>
      <trkpt lat="45.29727" lon="5.38872">
        <ele>626</ele>
        <time>2018-05-01T17:09:13Z</time>
      </trkpt>
      <trkpt lat="45.29763" lon="5.38928">
        <ele>618</ele>
        <time>2018-05-01T17:10:13Z</time>
      </trkpt>
      <trkpt lat="45.29842" lon="5.38977">
        <ele>608</ele>
        <time>2018-05-01T17:11:13Z</time>
      </trkpt>
      <trkpt lat="45.29898" lon="5.39002">
        <ele>610</ele>
        <time>2018-05-01T17:12:13Z</time>
      </trkpt>
      <trkpt lat="45.29942" lon="5.39026">
        <ele>602</ele>
        <time>2018-05-01T17:13:13Z</time>
      </trkpt>
      <trkpt lat="45.29973" lon="5.39075">
        <ele>603</ele>
        <time>2018-05-01T17:14:13Z</time>
      </trkpt>
      <trkpt lat="45.29973" lon="5.39118">
        <ele>605</ele>
        <time>2018-05-01T17:15:13Z</time>
      </trkpt>
      <trkpt lat="45.29959" lon="5.39196">
        <ele>598</ele>
        <time>2018-05-01T17:16:13Z</time>
      </trkpt>
      <trkpt lat="45.2989" lon="5.39239">
        <ele>604</ele>
        <time>2018-05-01T17:17:13Z</time>
      </trkpt>
      <trkpt lat="45.29833" lon="5.39258">
        <ele>607</ele>
        <time>2018-05-01T17:18:13Z</time>
      </trkpt>
      <trkpt lat="45.29797" lon="5.39299">
        <ele>610</ele>
        <time>2018-05-01T17:19:13Z</time>
      </trkpt>
      <trkpt lat="45.29765" lon="5.39366">
        <ele>604</ele>
        <time>2018-05-01T17:20:13Z</time>
      </trkpt>
      <trkpt lat="45.29744" lon="5.39422">
        <ele>601</ele>
        <time>2018-05-01T17:21:13Z</time>
      </trkpt>
      <trkpt lat="45.29745" lon="5.39532">
        <ele>591</ele>
        <time>2018-05-01T17:22:13Z</time>
      </trkpt>
      <trkpt lat="45.29744" lon="5.39608">
        <ele>584</ele>
        <time>2018-05-01T17:23:13Z</time>
      </trkpt>
      <trkpt lat="45.29737" lon="5.39674">
        <ele>574</ele>
        <time>2018-05-01T17:24:13Z</time>
      </trkpt>
      <trkpt lat="45.29727" lon="5.39694">
        <ele>572</ele>
        <time>2018-05-01T17:25:13Z</time>
      </trkpt>
      <trkpt lat="45.29774" lon="5.39721">
        <ele>565</ele>
        <time>2018-05-01T17:26:13Z</time>
      </trkpt>
      <trkpt lat="45.2983" lon="5.39786">
        <ele>552</ele>
        <time>2018-05-01T17:27:13Z</time>
      </trkpt>
      <trkpt lat="45.29868" lon="5.39812">
        <ele>543</ele>
        <time>2018-05-01T17:28:13Z</time>
      </trkpt>
      <trkpt lat="45.29897" lon="5.39821">
        <ele>540</ele>
        <time>2018-05-01T17:29:13Z</time>
      </trkpt>
      <trkpt lat="45.29915" lon="5.3988">
        <ele>535</ele>
        <time>2018-05-01T17:30:13Z</time>
      </trkpt>
      <trkpt lat="45.29884" lon="5.39919">
        <ele>534</ele>
        <time>2018-05-01T17:31:13Z</time>
      </trkpt>
      <trkpt lat="45.29848" lon="5.39936">
        <ele>535</ele>
        <time>2018-05-01T17:32:13Z</time>
      </trkpt>
      <trkpt lat="45.29795" lon="5.39997">
        <ele>541</ele>
        <time>2018-05-01T17:33:13Z</time>
      </trkpt>
      <trkpt lat="45.29745" lon="5.40047">
        <ele>543</ele>
        <time>2018-05-01T17:34:13Z</time>
      </trkpt>
      <trkpt lat="45.29715" lon="5.40082">
        <ele>542</ele>
        <time>2018-05-01T17:35:13Z</time>
      </trkpt>
      <trkpt lat="45.29654" lon="5.40133">
        <ele>541</ele>
        <time>2018-05-01T17:36:13Z</time>
      </trkpt>
      <trkpt lat="45.29594" lon="5.40132">
        <ele>542</ele>
        <time>2018-05-01T17:37:13Z</time>
      </trkpt>
      <trkpt lat="45.29536" lon="5.40181">
        <ele>543</ele>
        <time>2018-05-01T17:38:13Z</time>
      </trkpt>
      <trkpt lat="45.29517" lon="5.40164">
        <ele>551</ele>
        <time>2018-05-01T17:39:13Z</time>
      </trkpt>
      <trkpt lat="45.29453" lon="5.40223">
        <ele>555</ele>
        <time>2018-05-01T17:40:13Z</time>
      </trkpt>
      <trkpt lat="45.29391" lon="5.40245">
        <ele>567</ele>
        <time>2018-05-01T17:41:13Z</time>
      </trkpt>
      <trkpt lat="45.29327" lon="5.40248">
        <ele>571</ele>
        <time>2018-05-01T17:42:13Z</time>
      </trkpt>
      <trkpt lat="45.29287" lon="5.40233">
        <ele>577</ele>
        <time>2018-05-01T17:43:13Z</time>
      </trkpt>
      <trkpt lat="45.29247" lon="5.4023">
        <ele>575</ele>
        <time>2018-05-01T17:44:13Z</time>
      </trkpt>
      <trkpt lat="45.29193" lon="5.40207">
        <ele>579</ele>
        <time>2018-05-01T17:45:13Z</time>
      </trkpt>
      <trkpt lat="45.2916" lon="5.40182">
        <ele>582</ele>
        <time>2018-05-01T17:46:13Z</time>
      </trkpt>
      <trkpt lat="45.29145" lon="5.40177">
        <ele>580</ele>
        <time>2018-05-01T17:47:13Z</time>
      </trkpt>
      <trkpt lat="45.2914" lon="5.40156">
        <ele>595</ele>
        <time>2018-05-01T17:48:13Z</time>
      </trkpt>
      <trkpt lat="45.29087" lon="5.40141">
        <ele>594</ele>
        <time>2018-05-01T17:49:13Z</time>
      </trkpt>
      <trkpt lat="45.29057" lon="5.40115">
        <ele>595</ele>
        <time>2018-05-01T17:50:13Z</time>
      </trkpt>
      <trkpt lat="45.2904" lon="5.40088">
        <ele>596</ele>
        <time>2018-05-01T17:51:13Z</time>
      </trkpt>
      <trkpt lat="45.29023" lon="5.40045">
        <ele>610</ele>
        <time>2018-05-01T17:52:13Z</time>
      </trkpt>
      <trkpt lat="45.29004" lon="5.39983">
        <ele>623</ele>
        <time>2018-05-01T17:53:13Z</time>
      </trkpt>
      <trkpt lat="45.2898" lon="5.39965">
        <ele>621</ele>
        <time>2018-05-01T17:54:13Z</time>
      </trkpt>
      <trkpt lat="45.28964" lon="5.39976">
        <ele>619</ele>
        <time>2018-05-01T17:55:13Z</time>
      </trkpt>
      <trkpt lat="45.28889" lon="5.39954">
        <ele>606</ele>
        <time>2018-05-01T17:56:13Z</time>
      </trkpt>
      <trkpt lat="45.28863" lon="5.39901">
        <ele>611</ele>
        <time>2018-05-01T17:57:13Z</time>
      </trkpt>
      <trkpt lat="45.28848" lon="5.39861">
        <ele>611</ele>
        <time>2018-05-01T17:58:13Z</time>
      </trkpt>
      <trkpt lat="45.28834" lon="5.39815">
        <ele>614</ele>
        <time>2018-05-01T17:59:13Z</time>
      </trkpt>
      <trkpt lat="45.28821" lon="5.39801">
        <ele>604</ele>
        <time>2018-05-01T18:00:13Z</time>
      </trkpt>
      <trkpt lat="45.28801" lon="5.39773">
        <ele>604</ele>
        <time>2018-05-01T18:01:13Z</time>
      </trkpt>
      <trkpt lat="45.28783" lon="5.39747">
        <ele>608</ele>
        <time>2018-05-01T18:02:13Z</time>
      </trkpt>
      <trkpt lat="45.28775" lon="5.39727">
        <ele>607</ele>
        <time>2018-05-01T18:03:13Z</time>
      </trkpt>
      <trkpt lat="45.28773" lon="5.39696">
        <ele>609</ele>
        <time>2018-05-01T18:04:13Z</time>
      </trkpt>
      <trkpt lat="45.28796" lon="5.39701">
        <ele>611</ele>
        <time>2018-05-01T18:05:13Z</time>
      </trkpt>
      <trkpt lat="45.2881" lon="5.39694">
        <ele>613</ele>
        <time>2018-05-01T18:06:13Z</time>
      </trkpt>
      <trkpt lat="45.28817" lon="5.39678">
        <ele>616</ele>
        <time>2018-05-01T18:07:13Z</time>
      </trkpt>
      <trkpt lat="45.28824" lon="5.39599">
        <ele>620</ele>
        <time>2018-05-01T18:08:13Z</time>
      </trkpt>
      <trkpt lat="45.28842" lon="5.39556">
        <ele>632</ele>
        <time>2018-05-01T18:09:13Z</time>
      </trkpt>
      <trkpt lat="45.28854" lon="5.39516">
        <ele>633</ele>
        <time>2018-05-01T18:10:13Z</time>
      </trkpt>
      <trkpt lat="45.2887" lon="5.39454">
        <ele>638</ele>
        <time>2018-05-01T18:11:13Z</time>
      </trkpt>
      <trkpt lat="45.28879" lon="5.39403">
        <ele>641</ele>
        <time>2018-05-01T18:12:13Z</time>
      </trkpt>
      <trkpt lat="45.28899" lon="5.39331">
        <ele>645</ele>
        <time>2018-05-01T18:13:13Z</time>
      </trkpt>
      <trkpt lat="45.2893" lon="5.39242">
        <ele>652</ele>
        <time>2018-05-01T18:14:13Z</time>
      </trkpt>
      <trkpt lat="45.2895" lon="5.39164">
        <ele>657</ele>
        <time>2018-05-01T18:15:13Z</time>
      </trkpt>
      <trkpt lat="45.28934" lon="5.39064">
        <ele>662</ele>
        <time>2018-05-01T18:16:13Z</time>
      </trkpt>
      <trkpt lat="45.28925" lon="5.3886">
        <ele>671</ele>
        <time>2018-05-01T18:17:13Z</time>
      </trkpt>
      <trkpt lat="45.28901" lon="5.38736">
        <ele>686</ele>
        <time>2018-05-01T18:18:13Z</time>
      </trkpt>
      <trkpt lat="45.28864" lon="5.38589">
        <ele>691</ele>
        <time>2018-05-01T18:19:13Z</time>
      </trkpt>
      <trkpt lat="45.28844" lon="5.38497">
        <ele>696</ele>
        <time>2018-05-01T18:20:13Z</time>
      </trkpt>
      <trkpt lat="45.28835" lon="5.38421">
        <ele>699</ele>
        <time>2018-05-01T18:21:13Z</time>
      </trkpt>
      <trkpt lat="45.28797" lon="5.38314">
        <ele>705</ele>
        <time>2018-05-01T18:22:13Z</time>
      </trkpt>
      <trkpt lat="45.2877" lon="5.38192">
        <ele>711</ele>
        <time>2018-05-01T18:23:13Z</time>
      </trkpt>
      <trkpt lat="45.28817" lon="5.38006">
        <ele>714</ele>
        <time>2018-05-01T18:24:13Z</time>
      </trkpt>
      <trkpt lat="45.28859" lon="5.37878">
        <ele>725</ele>
        <time>2018-05-01T18:25:13Z</time>
      </trkpt>
      <trkpt lat="45.28897" lon="5.37764">
        <ele>732</ele>
        <time>2018-05-01T18:26:13Z</time>
      </trkpt>
      <trkpt lat="45.28911" lon="5.3765">
        <ele>738</ele>
        <time>2018-05-01T18:27:13Z</time>
      </trkpt>
      <trkpt lat="45.28967" lon="5.37597">
        <ele>737</ele>
        <time>2018-05-01T18:28:13Z</time>
      </trkpt>
      <trkpt lat="45.29024" lon="5.37575">
        <ele>740</ele>
        <time>2018-05-01T18:29:13Z</time>
      </trkpt>
      <trkpt lat="45.29068" lon="5.37514">
        <ele>741</ele>
        <time>2018-05-01T18:30:13Z</time>
      </trkpt>
      <trkpt lat="45.28994" lon="5.37505">
        <ele>746</ele>
        <time>2018-05-01T18:31:13Z</time>
      </trkpt>
      <trkpt lat="45.28911" lon="5.37507">
        <ele>747</ele>
        <time>2018-05-01T18:32:13Z</time>
      </trkpt>
      <trkpt lat="45.28856" lon="5.3749">
        <ele>744</ele>
        <time>2018-05-01T18:33:13Z</time>
      </trkpt>
      <trkpt lat="45.28782" lon="5.3742">
        <ele>742</ele>
        <time>2018-05-01T18:34:13Z</time>
      </trkpt>
      <trkpt lat="45.28686" lon="5.37336">
        <ele>738</ele>
        <time>2018-05-01T18:35:13Z</time>
      </trkpt>
      <trkpt lat="45.28619" lon="5.37325">
        <ele>734</ele>
        <time>2018-05-01T18:36:13Z</time>
      </trkpt>
      <trkpt lat="45.28535" lon="5.3728">
        <ele>726</ele>
        <time>2018-05-01T18:37:13Z</time>
      </trkpt>
      <trkpt lat="45.28514" lon="5.37259">
        <ele>726</ele>
        <time>2018-05-01T18:38:13Z</time>
      </trkpt>
      <trkpt lat="45.2848" lon="5.37201">
        <ele>724</ele>
        <time>2018-05-01T18:39:13Z</time>
      </trkpt>
      <trkpt lat="45.28385" lon="5.37146">
        <ele>712</ele>
        <time>2018-05-01T18:40:13Z</time>
      </trkpt>
      <trkpt lat="45.2833" lon="5.3715">
        <ele>699</ele>
        <time>2018-05-01T18:41:13Z</time>
      </trkpt>
      <trkpt lat="45.28261" lon="5.37133">
        <ele>694</ele>
        <time>2018-05-01T18:42:13Z</time>
      </trkpt>
      <trkpt lat="45.28205" lon="5.37158">
        <ele>690</ele>
      </trkpt>
      <trkpt lat="45.2817" lon="5.37074">
        <ele>678</ele>
        <time>2018-05-01T21:34:13Z</time>
      </trkpt>
      <trkpt lat="45.28164" lon="5.36999">
        <ele>663</ele>
        <time>2018-05-01T21:33:13Z</time>
      </trkpt>
      <trkpt lat="45.28151" lon="5.36934">
        <ele>653</ele>
        <time>2018-05-01T21:32:13Z</time>
      </trkpt>
      <trkpt lat="45.2814" lon="5.36948">
        <ele>654</ele>
        <time>2018-05-01T21:31:13Z</time>
      </trkpt>
      <trkpt lat="45.28125" lon="5.37013">
        <ele>665</ele>
        <time>2018-05-01T21:30:13Z</time>
      </trkpt>
      <trkpt lat="45.28106" lon="5.3703">
        <ele>666</ele>
        <time>2018-05-01T21:29:13Z</time>
      </trkpt>
      <trkpt lat="45.28065" lon="5.37">
        <ele>659</ele>
        <time>2018-05-01T21:28:13Z</time>
      </trkpt>
      <trkpt lat="45.28057" lon="5.36964">
        <ele>646</ele>
        <time>2018-05-01T21:27:13Z</time>
      </trkpt>
      <trkpt lat="45.28027" lon="5.36904">
        <ele>631</ele>
        <time>2018-05-01T21:26:13Z</time>
      </trkpt>
      <trkpt lat="45.27985" lon="5.36918">
        <ele>637</ele>
        <time>2018-05-01T21:25:13Z</time>
      </trkpt>
      <trkpt lat="45.27951" lon="5.36896">
        <ele>633</ele>
        <time>2018-05-01T21:24:13Z</time>
      </trkpt>
      <trkpt lat="45.27955" lon="5.36872">
        <ele>631</ele>
        <time>2018-05-01T21:23:13Z</time>
      </trkpt>
      <trkpt lat="45.27986" lon="5.36869">
        <ele>628</ele>
        <time>2018-05-01T21:22:13Z</time>
      </trkpt>
      <trkpt lat="45.27998" lon="5.36837">
        <ele>617</ele>
        <time>2018-05-01T21:21:13Z</time>
      </trkpt>
      <trkpt lat="45.2803" lon="5.3684">
        <ele>627</ele>
        <time>2018-05-01T21:20:13Z</time>
      </trkpt>
      <trkpt lat="45.28011" lon="5.36762">
        <ele>612</ele>
        <time>2018-05-01T21:19:13Z</time>
      </trkpt>
      <trkpt lat="45.28022" lon="5.3669">
        <ele>602</ele>
        <time>2018-05-01T21:18:13Z</time>
      </trkpt>
      <trkpt lat="45.28046" lon="5.36637">
        <ele>591</ele>
        <time>2018-05-01T21:17:13Z</time>
      </trkpt>
      <trkpt lat="45.28062" lon="5.36618">
        <ele>590</ele>
        <time>2018-05-01T21:16:13Z</time>
      </trkpt>
      <trkpt lat="45.28048" lon="5.36602">
        <ele>588</ele>
        <time>2018-05-01T21:15:13Z</time>
      </trkpt>
      <trkpt lat="45.28009" lon="5.36618">
        <ele>586</ele>
        <time>2018-05-01T21:14:13Z</time>
      </trkpt>
      <trkpt lat="45.27977" lon="5.36643">
        <ele>593</ele>
        <time>2018-05-01T21:13:13Z</time>
      </trkpt>
      <trkpt lat="45.27958" lon="5.36596">
        <ele>593</ele>
        <time>2018-05-01T21:12:13Z</time>
      </trkpt>
      <trkpt lat="45.27968" lon="5.36515">
        <ele>584</ele>
        <time>2018-05-01T21:11:13Z</time>
      </trkpt>
      <trkpt lat="45.27956" lon="5.3642">
        <ele>577</ele>
        <time>2018-05-01T21:10:13Z</time>
      </trkpt>
      <trkpt lat="45.27933" lon="5.36373">
        <ele>566</ele>
        <time>2018-05-01T21:09:13Z</time>
      </trkpt>
      <trkpt lat="45.27886" lon="5.36333">
        <ele>561</ele>
        <time>2018-05-01T21:08:13Z</time>
      </trkpt>
      <trkpt lat="45.27851" lon="5.36339">
        <ele>577</ele>
        <time>2018-05-01T21:07:13Z</time>
      </trkpt>
      <trkpt lat="45.27801" lon="5.3634">
        <ele>573</ele>
        <time>2018-05-01T21:06:13Z</time>
      </trkpt>
      <trkpt lat="45.27789" lon="5.3637">
        <ele>573</ele>
        <time>2018-05-01T21:05:13Z</time>
      </trkpt>
      <trkpt lat="45.27801" lon="5.36426">
        <ele>584</ele>
        <time>2018-05-01T21:04:13Z</time>
      </trkpt>
      <trkpt lat="45.27826" lon="5.36472">
        <ele>590</ele>
        <time>2018-05-01T21:03:13Z</time>
      </trkpt>
      <trkpt lat="45.27853" lon="5.36555">
        <ele>606</ele>
        <time>2018-05-01T21:02:13Z</time>
      </trkpt>
      <trkpt lat="45.27848" lon="5.36643">
        <ele>612</ele>
        <time>2018-05-01T21:01:13Z</time>
      </trkpt>
      <trkpt lat="45.27862" lon="5.36735">
        <ele>623</ele>
        <time>2018-05-01T21:00:13Z</time>
      </trkpt>
      <trkpt lat="45.27857" lon="5.36759">
        <ele>634</ele>
        <time>2018-05-01T20:59:13Z</time>
      </trkpt>
      <trkpt lat="45.27877" lon="5.36865">
        <ele>649</ele>
        <time>2018-05-01T20:58:13Z</time>
      </trkpt>
      <trkpt lat="45.27842" lon="5.36929">
        <ele>660</ele>
        <time>2018-05-01T20:57:13Z</time>
      </trkpt>
      <trkpt lat="45.27833" lon="5.36968">
        <ele>664</ele>
        <time>2018-05-01T20:56:13Z</time>
      </trkpt>
      <trkpt lat="45.27829" lon="5.37012">
        <ele>675</ele>
        <time>2018-05-01T20:55:13Z</time>
      </trkpt>
      <trkpt lat="45.27804" lon="5.37045">
        <ele>682</ele>
        <time>2018-05-01T20:54:13Z</time>
      </trkpt>
      <trkpt lat="45.27759" lon="5.37076">
        <ele>689</ele>
        <time>2018-05-01T20:53:13Z</time>
      </trkpt>
      <trkpt lat="45.27715" lon="5.37066">
        <ele>692</ele>
        <time>2018-05-01T20:52:13Z</time>
      </trkpt>
      <trkpt lat="45.27749" lon="5.37116">
        <ele>706</ele>
        <time>2018-05-01T20:51:13Z</time>
      </trkpt>
      <trkpt lat="45.27674" lon="5.37113">
        <ele>708</ele>
        <time>2018-05-01T20:50:13Z</time>
      </trkpt>
      <trkpt lat="45.27671" lon="5.37164">
        <ele>710</ele>
        <time>2018-05-01T20:49:13Z</time>
      </trkpt>
      <trkpt lat="45.27687" lon="5.37236">
        <ele>712</ele>
        <time>2018-05-01T20:48:13Z</time>
      </trkpt>
      <trkpt lat="45.27686" lon="5.37277">
        <ele>711</ele>
        <time>2018-05-01T20:47:13Z</time>
      </trkpt>
      <trkpt lat="45.27679" lon="5.37309">
        <ele>708</ele>
        <time>2018-05-01T20:46:13Z</time>
      </trkpt>
      <trkpt lat="45.27665" lon="5.37332">
        <ele>697</ele>
        <time>2018-05-01T20:45:13Z</time>
      </trkpt>
      <trkpt lat="45.2765" lon="5.37358">
        <ele>685</ele>
        <time>2018-05-01T20:44:13Z</time>
      </trkpt>
      <trkpt lat="45.27637" lon="5.37389">
        <ele>680</ele>
        <time>2018-05-01T20:43:13Z</time>
      </trkpt>
      <trkpt lat="45.27689" lon="5.37414">
        <ele>697</ele>
        <time>2018-05-01T20:42:13Z</time>
      </trkpt>
      <trkpt lat="45.27758" lon="5.37469">
        <ele>698</ele>
        <time>2018-05-01T20:41:13Z</time>
      </trkpt>
      <trkpt lat="45.27802" lon="5.37505">
        <ele>688</ele>
        <time>2018-05-01T20:40:13Z</time>
      </trkpt>
      <trkpt lat="45.27844" lon="5.3757">
        <ele>692</ele>
        <time>2018-05-01T20:39:13Z</time>
      </trkpt>
      <trkpt lat="45.27883" lon="5.37655">
        <ele>684</ele>
        <time>2018-05-01T20:38:13Z</time>
      </trkpt>
      <trkpt lat="45.27901" lon="5.3772">
        <ele>673</ele>
        <time>2018-05-01T20:37:13Z</time>
      </trkpt>
      <trkpt lat="45.27908" lon="5.37794">
        <ele>669</ele>
        <time>2018-05-01T20:36:13Z</time>
      </trkpt>
      <trkpt lat="45.27901" lon="5.37853">
        <ele>674</ele>
        <time>2018-05-01T20:35:13Z</time>
      </trkpt>
      <trkpt lat="45.27853" lon="5.37875">
        <ele>671</ele>
        <time>2018-05-01T20:34:13Z</time>
      </trkpt>
      <trkpt lat="45.27787" lon="5.37922">
        <ele>666</ele>
        <time>2018-05-01T20:33:13Z</time>
      </trkpt>
      <trkpt lat="45.27737" lon="5.37969">
        <ele>650</ele>
        <time>2018-05-01T20:32:13Z</time>
      </trkpt>
      <trkpt lat="45.27705" lon="5.38007">
        <ele>653</ele>
        <time>2018-05-01T20:31:13Z</time>
      </trkpt>
      <trkpt lat="45.27672" lon="5.38028">
        <ele>650</ele>
        <time>2018-05-01T20:30:13Z</time>
      </trkpt>
      <trkpt lat="45.27599" lon="5.38051">
        <ele>631</ele>
        <time>2018-05-01T20:29:13Z</time>
      </trkpt>
      <trkpt lat="45.27594" lon="5.3808">
        <ele>631</ele>
        <time>2018-05-01T20:28:13Z</time>
      </trkpt>
      <trkpt lat="45.27618" lon="5.38157">
        <ele>634</ele>
        <time>2018-05-01T20:27:13Z</time>
      </trkpt>
      <trkpt lat="45.27648" lon="5.3826">
        <ele>629</ele>
        <time>2018-05-01T20:26:13Z</time>
      </trkpt>
      <trkpt lat="45.27685" lon="5.38416">
        <ele>629</ele>
        <time>2018-05-01T20:25:13Z</time>
      </trkpt>
      <trkpt lat="45.27704" lon="5.38476">
        <ele>628</ele>
        <time>2018-05-01T20:24:13Z</time>
      </trkpt>
      <trkpt lat="45.27712" lon="5.38516">
        <ele>627</ele>
        <time>2018-05-01T20:23:13Z</time>
      </trkpt>
      <trkpt lat="45.2769" lon="5.3855">
        <ele>623</ele>
        <time>2018-05-01T20:22:13Z</time>
      </trkpt>
      <trkpt lat="45.27731" lon="5.38576">
        <ele>630</ele>
        <time>2018-05-01T20:21:13Z</time>
      </trkpt>
      <trkpt lat="45.27746" lon="5.38633">
        <ele>629</ele>
        <time>2018-05-01T20:20:13Z</time>
      </trkpt>
      <trkpt lat="45.27754" lon="5.38692">
        <ele>650</ele>
        <time>2018-05-01T20:19:13Z</time>
      </trkpt>
      <trkpt lat="45.2776" lon="5.38739">
        <ele>647</ele>
        <time>2018-05-01T20:18:13Z</time>
      </trkpt>
      <trkpt lat="45.2777" lon="5.38848">
        <ele>654</ele>
        <time>2018-05-01T20:17:13Z</time>
      </trkpt>
      <trkpt lat="45.27785" lon="5.38907">
        <ele>659</ele>
        <time>2018-05-01T20:16:13Z</time>
      </trkpt>
      <trkpt lat="45.27813" lon="5.38961">
        <ele>662</ele>
        <time>2018-05-01T20:15:13Z</time>
      </trkpt>
      <trkpt lat="45.27876" lon="5.39004">
        <ele>682</ele>
        <time>2018-05-01T20:14:13Z</time>
      </trkpt>
      <trkpt lat="45.27909" lon="5.39042">
        <ele>684</ele>
        <time>2018-05-01T20:13:13Z</time>
      </trkpt>
      <trkpt lat="45.27935" lon="5.39082">
        <ele>691</ele>
        <time>2018-05-01T20:12:13Z</time>
      </trkpt>
      <trkpt lat="45.27893" lon="5.39137">
        <ele>687</ele>
        <time>2018-05-01T20:11:13Z</time>
      </trkpt>
      <trkpt lat="45.27837" lon="5.39177">
        <ele>689</ele>
        <time>2018-05-01T20:10:13Z</time>
      </trkpt>
      <trkpt lat="45.27747" lon="5.39197">
        <ele>688</ele>
        <time>2018-05-01T20:09:13Z</time>
      </trkpt>
      <trkpt lat="45.27692" lon="5.39233">
        <ele>693</ele>
        <time>2018-05-01T20:08:13Z</time>
      </trkpt>
      <trkpt lat="45.27671" lon="5.39228">
        <ele>693</ele>
        <time>2018-05-01T20:07:13Z</time>
      </trkpt>
      <trkpt lat="45.27649" lon="5.39183">
        <ele>691</ele>
        <time>2018-05-01T20:06:13Z</time>
      </trkpt>
      <trkpt lat="45.27608" lon="5.39159">
        <ele>682</ele>
        <time>2018-05-01T20:05:13Z</time>
      </trkpt>
      <trkpt lat="45.27544" lon="5.39143">
        <ele>676</ele>
        <time>2018-05-01T20:04:13Z</time>
      </trkpt>
      <trkpt lat="45.27505" lon="5.39177">
        <ele>683</ele>
        <time>2018-05-01T20:03:13Z</time>
      </trkpt>
      <trkpt lat="45.27444" lon="5.39233">
        <ele>680</ele>
        <time>2018-05-01T20:02:13Z</time>
      </trkpt>
      <trkpt lat="45.27391" lon="5.39208">
        <ele>674</ele>
        <time>2018-05-01T20:01:13Z</time>
      </trkpt>
      <trkpt lat="45.27308" lon="5.39186">
        <ele>680</ele>
        <time>2018-05-01T20:00:13Z</time>
      </trkpt>
      <trkpt lat="45.27245" lon="5.39184">
        <ele>679</ele>
        <time>2018-05-01T19:59:13Z</time>
      </trkpt>
      <trkpt lat="45.27233" lon="5.39193">
        <ele>678</ele>
        <time>2018-05-01T19:58:13Z</time>
      </trkpt>
      <trkpt lat="45.27233" lon="5.39244">
        <ele>685</ele>
        <time>2018-05-01T19:57:13Z</time>
      </trkpt>
      <trkpt lat="45.27235" lon="5.39275">
        <ele>684</ele>
        <time>2018-05-01T19:56:13Z</time>
      </trkpt>
      <trkpt lat="45.27227" lon="5.39326">
        <ele>684</ele>
        <time>2018-05-01T19:55:13Z</time>
      </trkpt>
      <trkpt lat="45.27233" lon="5.39367">
        <ele>680</ele>
        <time>2018-05-01T19:54:13Z</time>
      </trkpt>
      <trkpt lat="45.27248" lon="5.3941">
        <ele>686</ele>
        <time>2018-05-01T19:53:13Z</time>
      </trkpt>
      <trkpt lat="45.27272" lon="5.39521">
        <ele>697</ele>
        <time>2018-05-01T19:52:13Z</time>
      </trkpt>
      <trkpt lat="45.27243" lon="5.39557">
        <ele>687</ele>
        <time>2018-05-01T19:51:13Z</time>
      </trkpt>
      <trkpt lat="45.27192" lon="5.39594">
        <ele>693</ele>
        <time>2018-05-01T19:50:13Z</time>
      </trkpt>
      <trkpt lat="45.27135" lon="5.39601">
        <ele>686</ele>
        <time>2018-05-01T19:49:13Z</time>
      </trkpt>
      <trkpt lat="45.27083" lon="5.39605">
        <ele>680</ele>
        <time>2018-05-01T19:48:13Z</time>
      </trkpt>
      <trkpt lat="45.27123" lon="5.39658">
        <ele>689</ele>
        <time>2018-05-01T19:47:13Z</time>
      </trkpt>
      <trkpt lat="45.27139" lon="5.39689">
        <ele>692</ele>
        <time>2018-05-01T19:46:13Z</time>
      </trkpt>
      <trkpt lat="45.27169" lon="5.39733">
        <ele>706</ele>
        <time>2018-05-01T19:45:13Z</time>
      </trkpt>
      <trkpt lat="45.27218" lon="5.39733">
        <ele>713</ele>
        <time>2018-05-01T19:44:13Z</time>
      </trkpt>
      <trkpt lat="45.2727" lon="5.39733">
        <ele>727</ele>
        <time>2018-05-01T19:43:13Z</time>
      </trkpt>
      <trkpt lat="45.27324" lon="5.39749">
        <ele>735</ele>
        <time>2018-05-01T19:42:13Z</time>
      </trkpt>
      <trkpt lat="45.2739" lon="5.3977">
        <ele>745</ele>
        <time>2018-05-01T19:41:13Z</time>
      </trkpt>
      <trkpt lat="45.27442" lon="5.39764">
        <ele>757</ele>
        <time>2018-05-01T19:40:13Z</time>
      </trkpt>
      <trkpt lat="45.27459" lon="5.39777">
        <ele>757</ele>
        <time>2018-05-01T19:39:13Z</time>
      </trkpt>
      <trkpt lat="45.27483" lon="5.39817">
        <ele>757</ele>
        <time>2018-05-01T19:38:13Z</time>
      </trkpt>
      <trkpt lat="45.27514" lon="5.39869">
        <ele>755</ele>
        <time>2018-05-01T19:37:13Z</time>
      </trkpt>
      <trkpt lat="45.27546" lon="5.39918">
        <ele>749</ele>
        <time>2018-05-01T19:36:13Z</time>
      </trkpt>
      <trkpt lat="45.27516" lon="5.40013">
        <ele>741</ele>
        <time>2018-05-01T19:35:13Z</time>
      </trkpt>
      <trkpt lat="45.27463" lon="5.4015">
        <ele>731</ele>
        <time>2018-05-01T19:34:13Z</time>
      </trkpt>
      <trkpt lat="45.27485" lon="5.40287">
        <ele>730</ele>
        <time>2018-05-01T19:33:13Z</time>
      </trkpt>
      <trkpt lat="45.27585" lon="5.40403">
        <ele>729</ele>
        <time>2018-05-01T19:32:13Z</time>
      </trkpt>
      <trkpt lat="45.27632" lon="5.40483">
        <ele>730</ele>
        <time>2018-05-01T19:31:13Z</time>
      </trkpt>
      <trkpt lat="45.27686" lon="5.40551">
        <ele>722</ele>
        <time>2018-05-01T19:30:13Z</time>
      </trkpt>
      <trkpt lat="45.27712" lon="5.40526">
        <ele>719</ele>
        <time>2018-05-01T19:29:13Z</time>
      </trkpt>
      <trkpt lat="45.27715" lon="5.40491">
        <ele>716</ele>
        <time>2018-05-01T19:28:13Z</time>
      </trkpt>
      <trkpt lat="45.277" lon="5.4041">
        <ele>712</ele>
        <time>2018-05-01T19:27:13Z</time>
      </trkpt>
      <trkpt lat="45.27683" lon="5.4035">
        <ele>711</ele>
        <time>2018-05-01T19:26:13Z</time>
      </trkpt>
      <trkpt lat="45.27658" lon="5.40288">
        <ele>714</ele>
        <time>2018-05-01T19:25:13Z</time>
      </trkpt>
      <trkpt lat="45.27655" lon="5.40232">
        <ele>710</ele>
        <time>2018-05-01T19:24:13Z</time>
      </trkpt>
      <trkpt lat="45.27671" lon="5.40177">
        <ele>704</ele>
        <time>2018-05-01T19:23:13Z</time>
      </trkpt>
      <trkpt lat="45.27704" lon="5.40163">
        <ele>708</ele>
        <time>2018-05-01T19:22:13Z</time>
      </trkpt>
      <trkpt lat="45.27759" lon="5.40158">
        <ele>702</ele>
        <time>2018-05-01T19:21:13Z</time>
      </trkpt>
      <trkpt lat="45.27812" lon="5.40112">
        <ele>705</ele>
        <time>2018-05-01T19:20:13Z</time>
      </trkpt>
      <trkpt lat="45.27857" lon="5.40087">
        <ele>700</ele>
        <time>2018-05-01T19:19:13Z</time>
      </trkpt>
      <trkpt lat="45.2788" lon="5.40064">
        <ele>706</ele>
        <time>2018-05-01T19:18:13Z</time>
      </trkpt>
      <trkpt lat="45.27896" lon="5.39999">
        <ele>708</ele>
        <time>2018-05-01T19:17:13Z</time>
      </trkpt>
      <trkpt lat="45.2788" lon="5.39943">
        <ele>708</ele>
        <time>2018-05-01T19:16:13Z</time>
      </trkpt>
      <trkpt lat="45.27809" lon="5.39829">
        <ele>702</ele>
        <time>2018-05-01T19:15:13Z</time>
      </trkpt>
      <trkpt lat="45.27775" lon="5.39784">
        <ele>704</ele>
        <time>2018-05-01T19:14:13Z</time>
      </trkpt>
      <trkpt lat="45.27769" lon="5.39741">
        <ele>706</ele>
        <time>2018-05-01T19:13:13Z</time>
      </trkpt>
      <trkpt lat="45.27802" lon="5.39706">
        <ele>705</ele>
        <time>2018-05-01T19:12:13Z</time>
      </trkpt>
      <trkpt lat="45.27844" lon="5.39663">
        <ele>698</ele>
        <time>2018-05-01T19:11:13Z</time>
      </trkpt>
      <trkpt lat="45.27862" lon="5.39594">
        <ele>697</ele>
        <time>2018-05-01T19:10:13Z</time>
      </trkpt>
      <trkpt lat="45.27867" lon="5.39531">
        <ele>701</ele>
        <time>2018-05-01T19:09:13Z</time>
      </trkpt>
      <trkpt lat="45.27927" lon="5.39487">
        <ele>696</ele>
        <time>2018-05-01T19:08:13Z</time>
      </trkpt>
      <trkpt lat="45.27972" lon="5.39443">
        <ele>697</ele>
        <time>2018-05-01T19:07:13Z</time>
      </trkpt>
      <trkpt lat="45.27981" lon="5.39387">
        <ele>699</ele>
        <time>2018-05-01T19:06:13Z</time>
      </trkpt>
      <trkpt lat="45.27971" lon="5.39302">
        <ele>697</ele>
        <time>2018-05-01T19:05:13Z</time>
      </trkpt>
      <trkpt lat="45.27964" lon="5.39217">
        <ele>694</ele>
        <time>2018-05-01T19:04:13Z</time>
      </trkpt>
      <trkpt lat="45.27981" lon="5.39118">
        <ele>693</ele>
        <time>2018-05-01T19:03:13Z</time>
      </trkpt>
      <trkpt lat="45.27958" lon="5.39092">
        <ele>692</ele>
        <time>2018-05-01T19:02:13Z</time>
      </trkpt>
      <trkpt lat="45.27973" lon="5.38978">
        <ele>698</ele>
        <time>2018-05-01T19:01:13Z</time>
      </trkpt>
      <trkpt lat="45.28015" lon="5.38826">
        <ele>705</ele>
        <time>2018-05-01T19:00:13Z</time>
      </trkpt>
      <trkpt lat="45.28069" lon="5.38696">
        <ele>708</ele>
        <time>2018-05-01T18:59:13Z</time>
      </trkpt>
      <trkpt lat="45.28056" lon="5.38623">
        <ele>709</ele>
        <time>2018-05-01T18:58:13Z</time>
      </trkpt>
      <trkpt lat="45.28065" lon="5.38454">
        <ele>713</ele>
        <time>2018-05-01T18:57:13Z</time>
      </trkpt>
      <trkpt lat="45.28085" lon="5.383">
        <ele>707</ele>
        <time>2018-05-01T18:56:13Z</time>
      </trkpt>
      <trkpt lat="45.28085" lon="5.38184">
        <ele>712</ele>
        <time>2018-05-01T18:55:13Z</time>
      </trkpt>
      <trkpt lat="45.28091" lon="5.38075">
        <ele>716</ele>
        <time>2018-05-01T18:54:13Z</time>
      </trkpt>
      <trkpt lat="45.28068" lon="5.38046">
        <ele>717</ele>
        <time>2018-05-01T18:53:13Z</time>
      </trkpt>
      <trkpt lat="45.28041" lon="5.37951">
        <ele>719</ele>
        <time>2018-05-01T18:52:13Z</time>
      </trkpt>
      <trkpt lat="45.28045" lon="5.37857">
        <ele>717</ele>
        <time>2018-05-01T18:51:13Z</time>
      </trkpt>
      <trkpt lat="45.28034" lon="5.37732">
        <ele>713</ele>
        <time>2018-05-01T18:50:13Z</time>
      </trkpt>
      <trkpt lat="45.28079" lon="5.37655">
        <ele>713</ele>
        <time>2018-05-01T18:49:13Z</time>
      </trkpt>
      <trkpt lat="45.28111" lon="5.37539">
        <ele>702</ele>
        <time>2018-05-01T18:48:13Z</time>
      </trkpt>
      <trkpt lat="45.28108" lon="5.37457">
        <ele>702</ele>
        <time>2018-05-01T18:47:13Z</time>
      </trkpt>
      <trkpt lat="45.28112" lon="5.37313">
        <ele>699</ele>
        <time>2018-05-01T18:46:13Z</time>
      </trkpt>
      <trkpt lat="45.28135" lon="5.37257">
        <ele>697</ele>
        <time>2018-05-01T18:45:13Z</time>
      </trkpt>
      <trkpt lat="45.28149" lon="5.37223">
        <ele>695</ele>
      </trkpt>
      <trkpt lat="45.28166" lon="5.37202">
        <ele>694</ele>
      </trkpt>
      <trkpt lat="45.28198" lon="5.37167">
        <ele>693</ele>
      </trkpt>
      <trkpt lat="45.28214" lon="5.37109">
        <ele>688</ele>
        <time>2018-05-01T21:36:13Z</time>
      </trkpt>
      <trkpt lat="45.28263" lon="5.37067">
        <ele>687</ele>
        <time>2018-05-01T21:37:13Z</time>
      </trkpt>
      <trkpt lat="45.28314" lon="5.3707">
        <ele>690</ele>
        <time>2018-05-01T21:38:13Z</time>
      </trkpt>
      <trkpt lat="45.28341" lon="5.37002">
        <ele>689</ele>
        <time>2018-05-01T21:39:13Z</time>
      </trkpt>
      <trkpt lat="45.28371" lon="5.36955">
        <ele>683</ele>
        <time>2018-05-01T21:40:13Z</time>
      </trkpt>
      <trkpt lat="45.28434" lon="5.36936">
        <ele>694</ele>
        <time>2018-05-01T21:41:13Z</time>
      </trkpt>
      <trkpt lat="45.28476" lon="5.36892">
        <ele>687</ele>
        <time>2018-05-01T21:42:13Z</time>
      </trkpt>
      <trkpt lat="45.28502" lon="5.36858">
        <ele>692</ele>
        <time>2018-05-01T21:43:13Z</time>
      </trkpt>
      <trkpt lat="45.28496" lon="5.36784">
        <ele>675</ele>
        <time>2018-05-01T21:44:13Z</time>
      </trkpt>
      <trkpt lat="45.28546" lon="5.36749">
        <ele>681</ele>
        <time>2018-05-01T21:45:13Z</time>
      </trkpt>
      <trkpt lat="45.28585" lon="5.36722">
        <ele>685</ele>
        <time>2018-05-01T21:46:13Z</time>
      </trkpt>
      <trkpt lat="45.28608" lon="5.36689">
        <ele>683</ele>
        <time>2018-05-01T21:47:13Z</time>
      </trkpt>
      <trkpt lat="45.28604" lon="5.36628">
        <ele>686</ele>
        <time>2018-05-01T21:48:13Z</time>
      </trkpt>
      <trkpt lat="45.28612" lon="5.36543">
        <ele>686</ele>
        <time>2018-05-01T21:49:13Z</time>
      </trkpt>
      <trkpt lat="45.28611" lon="5.36487">
        <ele>680</ele>
        <time>2018-05-01T21:50:13Z</time>
      </trkpt>
      <trkpt lat="45.28599" lon="5.3641">
        <ele>672</ele>
        <time>2018-05-01T21:51:13Z</time>
      </trkpt>
      <trkpt lat="45.28597" lon="5.36392">
        <ele>672</ele>
        <time>2018-05-01T21:52:13Z</time>
      </trkpt>
      <trkpt lat="45.28594" lon="5.36326">
        <ele>669</ele>
        <time>2018-05-01T21:53:13Z</time>
      </trkpt>
      <trkpt lat="45.28535" lon="5.36204">
        <ele>659</ele>
        <time>2018-05-01T21:54:13Z</time>
      </trkpt>
      <trkpt lat="45.2852" lon="5.36094">
        <ele>654</ele>
        <time>2018-05-01T21:55:13Z</time>
      </trkpt>
      <trkpt lat="45.28507" lon="5.3602">
        <ele>659</ele>
        <time>2018-05-01T21:56:13Z</time>
      </trkpt>
      <trkpt lat="45.28488" lon="5.35952">
        <ele>667</ele>
        <time>2018-05-01T21:57:13Z</time>
      </trkpt>
      <trkpt lat="45.28498" lon="5.35855">
        <ele>676</ele>
        <time>2018-05-01T21:58:13Z</time>
      </trkpt>
      <trkpt lat="45.28489" lon="5.35812">
        <ele>680</ele>
        <time>2018-05-01T21:59:13Z</time>
      </trkpt>
      <trkpt lat="45.28511" lon="5.35733">
        <ele>687</ele>
        <time>2018-05-01T22:00:13Z</time>
      </trkpt>
      <trkpt lat="45.28542" lon="5.35725">
        <ele>686</ele>
        <time>2018-05-01T22:01:13Z</time>
      </trkpt>
      <trkpt lat="45.28606" lon="5.35747">
        <ele>688</ele>
        <time>2018-05-01T22:02:13Z</time>
      </trkpt>
      <trkpt lat="45.2863" lon="5.3575">
        <ele>687</ele>
        <time>2018-05-01T22:03:13Z</time>
      </trkpt>
      <trkpt lat="45.28693" lon="5.35725">
        <ele>686</ele>
        <time>2018-05-01T22:04:13Z</time>
      </trkpt>
      <trkpt lat="45.28744" lon="5.3573">
        <ele>687</ele>
        <time>2018-05-01T22:05:13Z</time>
      </trkpt>
      <trkpt lat="45.28776" lon="5.35739">
        <ele>685</ele>
        <time>2018-05-01T22:06:13Z</time>
      </trkpt>
      <trkpt lat="45.28846" lon="5.35742">
        <ele>682</ele>
        <time>2018-05-01T22:07:13Z</time>
      </trkpt>
      <trkpt lat="45.28866" lon="5.3574">
        <ele>680</ele>
        <time>2018-05-01T22:08:13Z</time>
      </trkpt>
      <trkpt lat="45.28914" lon="5.35718">
        <ele>678</ele>
        <time>2018-05-01T22:09:13Z</time>
      </trkpt>
      <trkpt lat="45.28977" lon="5.35715">
        <ele>675</ele>
        <time>2018-05-01T22:10:13Z</time>
      </trkpt>
      <trkpt lat="45.29001" lon="5.35699">
        <ele>672</ele>
        <time>2018-05-01T22:11:13Z</time>
      </trkpt>
      <trkpt lat="45.29028" lon="5.35569">
        <ele>656</ele>
        <time>2018-05-01T22:12:13Z</time>
      </trkpt>
      <trkpt lat="45.29082" lon="5.35475">
        <ele>648</ele>
        <time>2018-05-01T22:13:13Z</time>
      </trkpt>
      <trkpt lat="45.29091" lon="5.35419">
        <ele>646</ele>
        <time>2018-05-01T22:14:13Z</time>
      </trkpt>
      <trkpt lat="45.29077" lon="5.35364">
        <ele>640</ele>
        <time>2018-05-01T22:15:13Z</time>
      </trkpt>
      <trkpt lat="45.29124" lon="5.35307">
        <ele>636</ele>
        <time>2018-05-01T22:16:13Z</time>
      </trkpt>
      <trkpt lat="45.2921" lon="5.35261">
        <ele>631</ele>
        <time>2018-05-01T22:17:13Z</time>
      </trkpt>
      <trkpt lat="45.29308" lon="5.35198">
        <ele>623</ele>
        <time>2018-05-01T22:18:13Z</time>
      </trkpt>
      <trkpt lat="45.2937" lon="5.35164">
        <ele>620</ele>
        <time>2018-05-01T22:19:13Z</time>
      </trkpt>
      <trkpt lat="45.29465" lon="5.35137">
        <ele>618</ele>
        <time>2018-05-01T22:20:13Z</time>
      </trkpt>
      <trkpt lat="45.29565" lon="5.35134">
        <ele>609</ele>
        <time>2018-05-01T22:21:13Z</time>
      </trkpt>
      <trkpt lat="45.29644" lon="5.35147">
        <ele>595</ele>
        <time>2018-05-01T22:22:13Z</time>
      </trkpt>
      <trkpt lat="45.29738" lon="5.35165">
        <ele>581</ele>
        <time>2018-05-01T22:23:13Z</time>
      </trkpt>
      <trkpt lat="45.29827" lon="5.352">
        <ele>572</ele>
        <time>2018-05-01T22:24:13Z</time>
      </trkpt>
      <trkpt lat="45.29911" lon="5.35171">
        <ele>564</ele>
        <time>2018-05-01T22:25:13Z</time>
      </trkpt>
      <trkpt lat="45.29983" lon="5.35173">
        <ele>557</ele>
        <time>2018-05-01T22:26:13Z</time>
      </trkpt>
      <trkpt lat="45.30031" lon="5.35147">
        <ele>547</ele>
        <time>2018-05-01T22:27:13Z</time>
      </trkpt>
      <trkpt lat="45.30046" lon="5.35166">
        <ele>546</ele>
        <time>2018-05-01T22:28:13Z</time>
      </trkpt>
      <trkpt lat="45.30079" lon="5.35147">
        <ele>542</ele>
        <time>2018-05-01T22:29:13Z</time>
      </trkpt>
      <trkpt lat="45.30089" lon="5.35158">
        <ele>535</ele>
        <time>2018-05-01T22:30:13Z</time>
      </trkpt>
      <trkpt lat="45.30104" lon="5.35085">
        <ele>531</ele>
        <time>2018-05-01T22:31:13Z</time>
      </trkpt>
      <trkpt lat="45.30125" lon="5.35098">
        <ele>527</ele>
        <time>2018-05-01T22:32:13Z</time>
      </trkpt>
      <trkpt lat="45.30156" lon="5.35143">
        <ele>522</ele>
        <time>2018-05-01T22:33:13Z</time>
      </trkpt>
      <trkpt lat="45.30191" lon="5.35162">
        <ele>512</ele>
        <time>2018-05-01T22:34:13Z</time>
      </trkpt>
      <trkpt lat="45.30251" lon="5.3519">
        <ele>506</ele>
        <time>2018-05-01T22:35:13Z</time>
      </trkpt>
      <trkpt lat="45.30256" lon="5.35272">
        <ele>507</ele>
        <time>2018-05-01T22:36:13Z</time>
      </trkpt>
      <trkpt lat="45.3026" lon="5.35346">
        <ele>512</ele>
        <time>2018-05-01T22:37:13Z</time>
      </trkpt>
      <trkpt lat="45.30266" lon="5.35433">
        <ele>516</ele>
        <time>2018-05-01T22:38:13Z</time>
      </trkpt>
      <trkpt lat="45.30271" lon="5.35504">
        <ele>519</ele>
        <time>2018-05-01T22:39:13Z</time>
      </trkpt>
      <trkpt lat="45.3028" lon="5.35568">
        <ele>521</ele>
        <time>2018-05-01T22:40:13Z</time>
      </trkpt>
      <trkpt lat="45.30284" lon="5.35604">
        <ele>523</ele>
        <time>2018-05-01T22:41:13Z</time>
      </trkpt>
      <trkpt lat="45.30279" lon="5.35684">
        <ele>525</ele>
        <time>2018-05-01T22:42:13Z</time>
      </trkpt>
      <trkpt lat="45.30285" lon="5.35716">
        <ele>525</ele>
        <time>2018-05-01T22:43:13Z</time>
      </trkpt>
      <trkpt lat="45.30306" lon="5.35772">
        <ele>523</ele>
        <time>2018-05-01T22:44:13Z</time>
      </trkpt>
      <trkpt lat="45.30319" lon="5.35799">
        <ele>523</ele>
        <time>2018-05-01T22:45:13Z</time>
      </trkpt>
      <trkpt lat="45.30307" lon="5.35895">
        <ele>527</ele>
        <time>2018-05-01T22:46:13Z</time>
      </trkpt>
      <trkpt lat="45.30293" lon="5.35971">
        <ele>531</ele>
        <time>2018-05-01T22:47:13Z</time>
      </trkpt>
      <trkpt lat="45.30275" lon="5.36031">
        <ele>530</ele>
        <time>2018-05-01T22:48:13Z</time>
      </trkpt>
      <trkpt lat="45.3027" lon="5.36071">
        <ele>529</ele>
        <time>2018-05-01T22:49:13Z</time>
      </trkpt>
      <trkpt lat="45.30278" lon="5.361">
        <ele>530</ele>
        <time>2018-05-01T22:50:13Z</time>
      </trkpt>
      <trkpt lat="45.30287" lon="5.36135">
        <ele>531</ele>
        <time>2018-05-01T22:51:13Z</time>
      </trkpt>
      <trkpt lat="45.30348" lon="5.36196">
        <ele>543</ele>
        <time>2018-05-01T22:52:13Z</time>
      </trkpt>
      <trkpt lat="45.30397" lon="5.36243">
        <ele>549</ele>
        <time>2018-05-01T22:53:13Z</time>
      </trkpt>
      <trkpt lat="45.30454" lon="5.36274">
        <ele>560</ele>
        <time>2018-05-01T22:54:13Z</time>
      </trkpt>
      <trkpt lat="45.30488" lon="5.36288">
        <ele>562</ele>
        <time>2018-05-01T22:55:13Z</time>
      </trkpt>
      <trkpt lat="45.30526" lon="5.36311">
        <ele>569</ele>
        <time>2018-05-01T22:56:13Z</time>
      </trkpt>
      <trkpt lat="45.30553" lon="5.36319">
        <ele>571</ele>
        <time>2018-05-01T22:57:13Z</time>
      </trkpt>
      <trkpt lat="45.30594" lon="5.36329">
        <ele>576</ele>
        <time>2018-05-01T22:58:13Z</time>
      </trkpt>
      <trkpt lat="45.30616" lon="5.36329">
        <ele>580</ele>
        <time>2018-05-01T22:59:13Z</time>
      </trkpt>
      <trkpt lat="45.30632" lon="5.3631">
        <ele>582</ele>
        <time>2018-05-01T23:00:13Z</time>
      </trkpt>
      <trkpt lat="45.30662" lon="5.36332">
        <ele>582</ele>
        <time>2018-05-01T23:01:13Z</time>
      </trkpt>
      <trkpt lat="45.30698" lon="5.36376">
        <ele>587</ele>
        <time>2018-05-01T23:02:13Z</time>
      </trkpt>
      <trkpt lat="45.30724" lon="5.3642">
        <ele>587</ele>
        <time>2018-05-01T23:03:13Z</time>
      </trkpt>
      <trkpt lat="45.30759" lon="5.36466">
        <ele>594</ele>
        <time>2018-05-01T23:04:13Z</time>
      </trkpt>
      <trkpt lat="45.30783" lon="5.36516">
        <ele>593</ele>
        <time>2018-05-01T23:05:13Z</time>
      </trkpt>
      <trkpt lat="45.30805" lon="5.36563">
        <ele>594</ele>
        <time>2018-05-01T23:06:13Z</time>
      </trkpt>
      <trkpt lat="45.30822" lon="5.3665">
        <ele>593</ele>
        <time>2018-05-01T23:07:13Z</time>
      </trkpt>
      <trkpt lat="45.30827" lon="5.36747">
        <ele>594</ele>
        <time>2018-05-01T23:08:13Z</time>
      </trkpt>
      <trkpt lat="45.30834" lon="5.36808">
        <ele>599</ele>
        <time>2018-05-01T23:09:13Z</time>
      </trkpt>
      <trkpt lat="45.30839" lon="5.36852">
        <ele>598</ele>
        <time>2018-05-01T23:10:13Z</time>
      </trkpt>
      <trkpt lat="45.30838" lon="5.36909">
        <ele>596</ele>
        <time>2018-05-01T23:11:13Z</time>
      </trkpt>
      <trkpt lat="45.30831" lon="5.3698">
        <ele>594</ele>
        <time>2018-05-01T23:12:13Z</time>
      </trkpt>
      <trkpt lat="45.30833" lon="5.37045">
        <ele>591</ele>
        <time>2018-05-01T23:13:13Z</time>
      </trkpt>
      <trkpt lat="45.30858" lon="5.37091">
        <ele>583</ele>
        <time>2018-05-01T23:14:13Z</time>
      </trkpt>
      <trkpt lat="45.309" lon="5.37121">
        <ele>582</ele>
        <time>2018-05-01T23:15:13Z</time>
      </trkpt>
      <trkpt lat="45.30942" lon="5.37139">
        <ele>581</ele>
        <time>2018-05-01T23:16:13Z</time>
      </trkpt>
      <trkpt lat="45.30975" lon="5.37143">
        <ele>582</ele>
        <time>2018-05-01T23:17:13Z</time>
      </trkpt>
      <trkpt lat="45.31034" lon="5.37144">
        <ele>579</ele>
        <time>2018-05-01T23:18:13Z</time>
      </trkpt>
      <trkpt lat="45.31069" lon="5.37139">
        <ele>577</ele>
        <time>2018-05-01T23:19:13Z</time>
      </trkpt>
      <trkpt lat="45.31092" lon="5.37124">
        <ele>571</ele>
        <time>2018-05-01T23:20:13Z</time>
      </trkpt>
      <trkpt lat="45.31117" lon="5.37089">
        <ele>571</ele>
        <time>2018-05-01T23:21:13Z</time>
      </trkpt>
      <trkpt lat="45.31153" lon="5.37022">
        <ele>575</ele>
        <time>2018-05-01T23:22:13Z</time>
      </trkpt>
      <trkpt lat="45.31209" lon="5.3693">
        <ele>566</ele>
        <time>2018-05-01T23:23:13Z</time>
      </trkpt>
      <trkpt lat="45.31223" lon="5.36888">
        <ele>566</ele>
        <time>2018-05-01T23:24:13Z</time>
      </trkpt>
      <trkpt lat="45.3125" lon="5.3681">
        <ele>562</ele>
        <time>2018-05-01T23:25:13Z</time>
      </trkpt>
      <trkpt lat="45.31288" lon="5.36728">
        <ele>558</ele>
        <time>2018-05-01T23:26:13Z</time>
      </trkpt>
      <trkpt lat="45.31296" lon="5.36656">
        <ele>556</ele>
        <time>2018-05-01T23:27:13Z</time>
      </trkpt>
      <trkpt lat="45.31299" lon="5.36582">
        <ele>554</ele>
        <time>2018-05-01T23:28:13Z</time>
      </trkpt>
      <trkpt lat="45.31298" lon="5.36533">
        <ele>554</ele>
        <time>2018-05-01T23:29:13Z</time>
      </trkpt>
      <trkpt lat="45.31295" lon="5.36496">
        <ele>552</ele>
        <time>2018-05-01T23:30:13Z</time>
      </trkpt>
      <trkpt lat="45.31306" lon="5.36423">
        <ele>550</ele>
        <time>2018-05-01T23:31:13Z</time>
      </trkpt>
      <trkpt lat="45.313" lon="5.36362">
        <ele>549</ele>
        <time>2018-05-01T23:32:13Z</time>
      </trkpt>
      <trkpt lat="45.31316" lon="5.36291">
        <ele>548</ele>
        <time>2018-05-01T23:33:13Z</time>
      </trkpt>
      <trkpt lat="45.31299" lon="5.36208">
        <ele>548</ele>
        <time>2018-05-01T23:34:13Z</time>
      </trkpt>
      <trkpt lat="45.3128" lon="5.36171">
        <ele>549</ele>
        <time>2018-05-01T23:35:13Z</time>
      </trkpt>
      <trkpt lat="45.31263" lon="5.36134">
        <ele>549</ele>
        <time>2018-05-01T23:36:13Z</time>
      </trkpt>
      <trkpt lat="45.31259" lon="5.36081">
        <ele>549</ele>
        <time>2018-05-01T23:37:13Z</time>
      </trkpt>
      <trkpt lat="45.3127" lon="5.3597">
        <ele>543</ele>
        <time>2018-05-01T23:38:13Z</time>
      </trkpt>
      <trkpt lat="45.31324" lon="5.35929">
        <ele>538</ele>
        <time>2018-05-01T23:39:13Z</time>
      </trkpt>
      <trkpt lat="45.31334" lon="5.35898">
        <ele>535</ele>
        <time>2018-05-01T23:40:13Z</time>
      </trkpt>
      <trkpt lat="45.3133" lon="5.35831">
        <ele>535</ele>
        <time>2018-05-01T23:41:13Z</time>
      </trkpt>
      <trkpt lat="45.31306" lon="5.35683">
        <ele>535</ele>
        <time>2018-05-01T23:42:13Z</time>
      </trkpt>
      <trkpt lat="45.31286" lon="5.35553">
        <ele>531</ele>
        <time>2018-05-01T23:43:13Z</time>
      </trkpt>
      <trkpt lat="45.3131" lon="5.35534">
        <ele>530</ele>
        <time>2018-05-01T23:44:13Z</time>
      </trkpt>
      <trkpt lat="45.31392" lon="5.35524">
        <ele>524</ele>
        <time>2018-05-01T23:45:13Z</time>
      </trkpt>
      <trkpt lat="45.31482" lon="5.35473">
        <ele>517</ele>
        <time>2018-05-01T23:46:13Z</time>
      </trkpt>
      <trkpt lat="45.31543" lon="5.35646">
        <ele>521</ele>
        <time>2018-05-01T23:47:13Z</time>
      </trkpt>
      <trkpt lat="45.31577" lon="5.35709">
        <ele>522</ele>
        <time>2018-05-01T23:48:13Z</time>
      </trkpt>
      <trkpt lat="45.31621" lon="5.35743">
        <ele>517</ele>
        <time>2018-05-01T23:49:13Z</time>
      </trkpt>
      <trkpt lat="45.31694" lon="5.35729">
        <ele>508</ele>
        <time>2018-05-01T23:50:13Z</time>
      </trkpt>
      <trkpt lat="45.31782" lon="5.35709">
        <ele>497</ele>
        <time>2018-05-01T23:51:13Z</time>
      </trkpt>
      <trkpt lat="45.31864" lon="5.35679">
        <ele>487</ele>
        <time>2018-05-01T23:52:13Z</time>
      </trkpt>
      <trkpt lat="45.31928" lon="5.35628">
        <ele>481</ele>
        <time>2018-05-01T23:53:13Z</time>
      </trkpt>
      <trkpt lat="45.32014" lon="5.35538">
        <ele>466</ele>
        <time>2018-05-01T23:54:13Z</time>
      </trkpt>
      <trkpt lat="45.32081" lon="5.35482">
        <ele>462</ele>
        <time>2018-05-01T23:55:13Z</time>
      </trkpt>
      <trkpt lat="45.32136" lon="5.35437">
        <ele>454</ele>
        <time>2018-05-01T23:56:13Z</time>
      </trkpt>
      <trkpt lat="45.32173" lon="5.35481">
        <ele>451</ele>
        <time>2018-05-01T23:57:13Z</time>
      </trkpt>
      <trkpt lat="45.32183" lon="5.35513">
        <ele>453</ele>
        <time>2018-05-01T23:58:13Z</time>
      </trkpt>
      <trkpt lat="45.3222" lon="5.35493">
        <ele>450</ele>
        <time>2018-05-01T23:59:13Z</time>
      </trkpt>
      <trkpt lat="45.32272" lon="5.35428">
        <ele>443</ele>
        <time>2018-05-02T00:00:13Z</time>
      </trkpt>
      <trkpt lat="45.32293" lon="5.35353">
        <ele>439</ele>
        <time>2018-05-02T00:01:13Z</time>
      </trkpt>
      <trkpt lat="45.32327" lon="5.35333">
        <ele>435</ele>
        <time>2018-05-02T00:02:13Z</time>
      </trkpt>
      <trkpt lat="45.32379" lon="5.35317">
        <ele>436</ele>
        <time>2018-05-02T00:03:13Z</time>
      </trkpt>
      <trkpt lat="45.32383" lon="5.35283">
        <ele>436</ele>
        <time>2018-05-02T00:04:13Z</time>
      </trkpt>
      <trkpt lat="45.3241" lon="5.35245">
        <ele>437</ele>
        <time>2018-05-02T00:05:13Z</time>
      </trkpt>
      <trkpt lat="45.32418" lon="5.35185">
        <ele>446</ele>
        <time>2018-05-02T00:06:13Z</time>
      </trkpt>
      <trkpt lat="45.32395" lon="5.35136">
        <ele>439</ele>
        <time>2018-05-02T00:07:13Z</time>
      </trkpt>
      <trkpt lat="45.32391" lon="5.35088">
        <ele>439</ele>
        <time>2018-05-02T00:08:13Z</time>
      </trkpt>
      <trkpt lat="45.32458" lon="5.35253">
        <ele>448</ele>
        <time>2018-05-02T00:09:13Z</time>
      </trkpt>
      <trkpt lat="45.32484" lon="5.35297">
        <ele>452</ele>
        <time>2018-05-02T00:10:13Z</time>
      </trkpt>
      <trkpt lat="45.32526" lon="5.35409">
        <ele>462</ele>
        <time>2018-05-02T00:11:13Z</time>
      </trkpt>
      <trkpt lat="45.32559" lon="5.35492">
        <ele>462</ele>
        <time>2018-05-02T00:12:13Z</time>
      </trkpt>
      <trkpt lat="45.32609" lon="5.35528">
        <ele>469</ele>
        <time>2018-05-02T00:13:13Z</time>
      </trkpt>
      <trkpt lat="45.32638" lon="5.35537">
        <ele>469</ele>
        <time>2018-05-02T00:14:13Z</time>
      </trkpt>
      <trkpt lat="45.32652" lon="5.35561">
        <ele>470</ele>
        <time>2018-05-02T00:15:13Z</time>
      </trkpt>
      <trkpt lat="45.32689" lon="5.35568">
        <ele>471</ele>
        <time>2018-05-02T00:16:13Z</time>
      </trkpt>
      <trkpt lat="45.32732" lon="5.35623">
        <ele>473</ele>
        <time>2018-05-02T00:17:13Z</time>
      </trkpt>
      <trkpt lat="45.32777" lon="5.35679">
        <ele>476</ele>
        <time>2018-05-02T00:18:13Z</time>
      </trkpt>
      <trkpt lat="45.3284" lon="5.35644">
        <ele>473</ele>
        <time>2018-05-02T00:19:13Z</time>
      </trkpt>
      <trkpt lat="45.3288" lon="5.3559">
        <ele>472</ele>
        <time>2018-05-02T00:20:13Z</time>
      </trkpt>
      <trkpt lat="45.32912" lon="5.3551">
        <ele>469</ele>
        <time>2018-05-02T00:21:13Z</time>
      </trkpt>
      <trkpt lat="45.32947" lon="5.35459">
        <ele>467</ele>
        <time>2018-05-02T00:22:13Z</time>
      </trkpt>
      <trkpt lat="45.32998" lon="5.35426">
        <ele>466</ele>
        <time>2018-05-02T00:23:13Z</time>
      </trkpt>
      <trkpt lat="45.3306" lon="5.35379">
        <ele>460</ele>
        <time>2018-05-02T00:24:13Z</time>
      </trkpt>
      <trkpt lat="45.33101" lon="5.35343">
        <ele>455</ele>
        <time>2018-05-02T00:25:13Z</time>
      </trkpt>
      <trkpt lat="45.33172" lon="5.35264">
        <ele>449</ele>
        <time>2018-05-02T00:26:13Z</time>
      </trkpt>
      <trkpt lat="45.33255" lon="5.35242">
        <ele>444</ele>
        <time>2018-05-02T00:27:13Z</time>
      </trkpt>
      <trkpt lat="45.3334" lon="5.3522">
        <ele>439</ele>
        <time>2018-05-02T00:28:13Z</time>
      </trkpt>
      <trkpt lat="45.33395" lon="5.35175">
        <ele>436</ele>
        <time>2018-05-02T00:29:13Z</time>
      </trkpt>
      <trkpt lat="45.33477" lon="5.35099">
        <ele>429</ele>
        <time>2018-05-02T00:30:13Z</time>
      </trkpt>
      <trkpt lat="45.33546" lon="5.35026">
        <ele>423</ele>
        <time>2018-05-02T00:31:13Z</time>
      </trkpt>
      <trkpt lat="45.33596" lon="5.35014">
        <ele>416</ele>
        <time>2018-05-02T00:32:13Z</time>
      </trkpt>
      <trkpt lat="45.33705" lon="5.35003">
        <ele>402</ele>
        <time>2018-05-02T00:33:13Z</time>
      </trkpt>
      <trkpt lat="45.33719" lon="5.34987">
        <ele>403</ele>
        <time>2018-05-02T00:34:13Z</time>
      </trkpt>
      <trkpt lat="45.33825" lon="5.35027">
        <ele>394</ele>
        <time>2018-05-02T00:35:13Z</time>
      </trkpt>
      <trkpt lat="45.3376" lon="5.35312">
        <ele>390</ele>
        <time>2018-05-02T00:36:13Z</time>
      </trkpt>
      <trkpt lat="45.33754" lon="5.35386">
        <ele>391</ele>
        <time>2018-05-02T00:37:13Z</time>
      </trkpt>
      <trkpt lat="45.33763" lon="5.35559">
        <ele>391</ele>
        <time>2018-05-02T00:38:13Z</time>
      </trkpt>
      <trkpt lat="45.33752" lon="5.35671">
        <ele>394</ele>
        <time>2018-05-02T00:39:13Z</time>
      </trkpt>
      <trkpt lat="45.33759" lon="5.35768">
        <ele>394</ele>
        <time>2018-05-02T00:40:13Z</time>
      </trkpt>
      <trkpt lat="45.33777" lon="5.35871">
        <ele>395</ele>
        <time>2018-05-02T00:41:13Z</time>
      </trkpt>
      <trkpt lat="45.33797" lon="5.36026">
        <ele>397</ele>
        <time>2018-05-02T00:42:13Z</time>
      </trkpt>
      <trkpt lat="45.33855" lon="5.36016">
        <ele>391</ele>
        <time>2018-05-02T00:43:13Z</time>
      </trkpt>
      <trkpt lat="45.33923" lon="5.36017">
        <ele>390</ele>
        <time>2018-05-02T00:44:13Z</time>
      </trkpt>
      <trkpt lat="45.33982" lon="5.35965">
        <ele>389</ele>
        <time>2018-05-02T00:45:13Z</time>
      </trkpt>
      <trkpt lat="45.34025" lon="5.35906">
        <ele>388</ele>
        <time>2018-05-02T00:46:13Z</time>
      </trkpt>
      <trkpt lat="45.34052" lon="5.35829">
        <ele>389</ele>
        <time>2018-05-02T00:47:13Z</time>
      </trkpt>
      <trkpt lat="45.34082" lon="5.35757">
        <ele>389</ele>
        <time>2018-05-02T00:48:13Z</time>
      </trkpt>
      <trkpt lat="45.34104" lon="5.35734">
        <ele>388</ele>
        <time>2018-05-02T00:49:13Z</time>
      </trkpt>
      <trkpt lat="45.34147" lon="5.35745">
        <ele>388</ele>
        <time>2018-05-02T00:50:13Z</time>
      </trkpt>
      <trkpt lat="45.34178" lon="5.35777">
        <ele>389</ele>
        <time>2018-05-02T00:51:13Z</time>
      </trkpt>
      <trkpt lat="45.34196" lon="5.35807">
        <ele>389</ele>
        <time>2018-05-02T00:52:13Z</time>
      </trkpt>
      <trkpt lat="45.34184" lon="5.35906">
        <ele>388</ele>
        <time>2018-05-02T00:53:13Z</time>
      </trkpt>
      <trkpt lat="45.34163" lon="5.3601">
        <ele>387</ele>
        <time>2018-05-02T00:54:13Z</time>
      </trkpt>
      <trkpt lat="45.34147" lon="5.36074">
        <ele>389</ele>
        <time>2018-05-02T00:55:13Z</time>
      </trkpt>
      <trkpt lat="45.34131" lon="5.3616">
        <ele>390</ele>
        <time>2018-05-02T00:56:13Z</time>
      </trkpt>
      <trkpt lat="45.34122" lon="5.36253">
        <ele>389</ele>
        <time>2018-05-02T00:57:13Z</time>
      </trkpt>
      <trkpt lat="45.34141" lon="5.36367">
        <ele>391</ele>
        <time>2018-05-02T00:58:13Z</time>
      </trkpt>
      <trkpt lat="45.34142" lon="5.3645">
        <ele>390</ele>
        <time>2018-05-02T00:59:13Z</time>
      </trkpt>
      <trkpt lat="45.34205" lon="5.36497">
        <ele>390</ele>
        <time>2018-05-02T01:00:13Z</time>
      </trkpt>
      <trkpt lat="45.34242" lon="5.36515">
        <ele>390</ele>
        <time>2018-05-02T01:01:13Z</time>
      </trkpt>
      <trkpt lat="45.34261" lon="5.36611">
        <ele>390</ele>
        <time>2018-05-02T01:02:13Z</time>
      </trkpt>
      <trkpt lat="45.34267" lon="5.36667">
        <ele>390</ele>
        <time>2018-05-02T01:03:13Z</time>
      </trkpt>
      <trkpt lat="45.3425" lon="5.36776">
        <ele>391</ele>
        <time>2018-05-02T01:04:13Z</time>
      </trkpt>
      <trkpt lat="45.34239" lon="5.36881">
        <ele>391</ele>
        <time>2018-05-02T01:05:13Z</time>
      </trkpt>
      <trkpt lat="45.34248" lon="5.36949">
        <ele>391</ele>
        <time>2018-05-02T01:06:13Z</time>
      </trkpt>
      <trkpt lat="45.3423" lon="5.37056">
        <ele>392</ele>
        <time>2018-05-02T01:07:13Z</time>
      </trkpt>
      <trkpt lat="45.34208" lon="5.37135">
        <ele>393</ele>
        <time>2018-05-02T01:08:13Z</time>
      </trkpt>
      <trkpt lat="45.34165" lon="5.3728">
        <ele>393</ele>
        <time>2018-05-02T01:09:13Z</time>
      </trkpt>
      <trkpt lat="45.3414" lon="5.37347">
        <ele>393</ele>
        <time>2018-05-02T01:10:13Z</time>
      </trkpt>
      <trkpt lat="45.34122" lon="5.37438">
        <ele>393</ele>
        <time>2018-05-02T01:11:13Z</time>
      </trkpt>
      <trkpt lat="45.3411" lon="5.37521">
        <ele>393</ele>
        <time>2018-05-02T01:12:13Z</time>
      </trkpt>
      <trkpt lat="45.34101" lon="5.3762">
        <ele>394</ele>
        <time>2018-05-02T01:13:13Z</time>
      </trkpt>
      <trkpt lat="45.34085" lon="5.37742">
        <ele>394</ele>
        <time>2018-05-02T01:14:13Z</time>
      </trkpt>
      <trkpt lat="45.34067" lon="5.37874">
        <ele>394</ele>
        <time>2018-05-02T01:15:13Z</time>
      </trkpt>
      <trkpt lat="45.34058" lon="5.3797">
        <ele>395</ele>
        <time>2018-05-02T01:16:13Z</time>
      </trkpt>
      <trkpt lat="45.34085" lon="5.38007">
        <ele>396</ele>
        <time>2018-05-02T01:17:13Z</time>
      </trkpt>
      <trkpt lat="45.34105" lon="5.38045">
        <ele>397</ele>
        <time>2018-05-02T01:18:13Z</time>
      </trkpt>
      <trkpt lat="45.34109" lon="5.38153">
        <ele>397</ele>
        <time>2018-05-02T01:19:13Z</time>
      </trkpt>
      <trkpt lat="45.34104" lon="5.38213">
        <ele>398</ele>
        <time>2018-05-02T01:20:13Z</time>
      </trkpt>
      <trkpt lat="45.34093" lon="5.38283">
        <ele>399</ele>
        <time>2018-05-02T01:21:13Z</time>
      </trkpt>
      <trkpt lat="45.34076" lon="5.38342">
        <ele>399</ele>
        <time>2018-05-02T01:22:13Z</time>
      </trkpt>
      <trkpt lat="45.34027" lon="5.38386">
        <ele>399</ele>
        <time>2018-05-02T01:23:13Z</time>
      </trkpt>
      <trkpt lat="45.34021" lon="5.38433">
        <ele>400</ele>
        <time>2018-05-02T01:24:13Z</time>
      </trkpt>
      <trkpt lat="45.34028" lon="5.38534">
        <ele>401</ele>
        <time>2018-05-02T01:25:13Z</time>
      </trkpt>
      <trkpt lat="45.3404" lon="5.3862">
        <ele>401</ele>
        <time>2018-05-02T01:26:13Z</time>
      </trkpt>
      <trkpt lat="45.3415" lon="5.38618">
        <ele>401</ele>
        <time>2018-05-02T01:27:13Z</time>
      </trkpt>
      <trkpt lat="45.3416" lon="5.38559">
        <ele>400</ele>
        <time>2018-05-02T01:28:13Z</time>
      </trkpt>
    </trkseg>
  </trk>
</gpx>